<?xml version="1.0" encoding="UTF-8" standalone="no" ?>
<gpx xmlns="http://www.topografix.com/GPX/1/1" xmlns:xsi="http://www.w3.org/2001/XMLSchema-instance" xsi:schemaLocation="http://www.topografix.com/GPX/1/1 http://www.topografix.com/GPX/1/1/gpx.xsd" version="1.1" creator="VisuGPX - https://www.visugpx.com">
  <metadata>
    <name>Le circuit des chapelles</name>
    <desc><![CDATA[Départ du parking devant le restaurant « La Chaumière » à Medelsheim (Sarre) pour un circuit transfrontalier. Se diriger vers le chemin de croix puis la chapelle dans le cimetière de Medelsheim. Continuer sur les hauteurs et redescendre vers le village pour visiter l église, son retable remarquable et les reliques de Saint Pirmin derrière le maître autel. Traverser les villages de Peppenkum puis Riesweiler. Monter vers le Friedenskreuz. La chapelle Saint Joseph, en France, est à proximité. Continuer vers la chapelle de Utweiler, en Sarre. Revenir en France pour visiter la chapelle Saint Anne de Guiderkirch. Continuer vers le village de Erching. Revenir en Sarre vers Medelsheim.
http://www.clubvosgienbitche.fr/201601medelsheim.html
]]></desc>
  </metadata>
  <trk>
    <name><![CDATA[03-JAN-16 14:03:51]]></name>
    <trkseg>
      <trkpt lat="49.14302" lon="7.27454">
        <ele>213.55</ele>
        <time>2016-01-03T08:02:57Z</time>
      </trkpt>
      <trkpt lat="49.1431" lon="7.2745">
        <ele>247.68</ele>
        <time>2016-01-03T08:03:20Z</time>
      </trkpt>
      <trkpt lat="49.1431" lon="7.27446">
        <ele>247.2</ele>
        <time>2016-01-03T08:03:37Z</time>
      </trkpt>
      <trkpt lat="49.14312" lon="7.27438">
        <ele>248.64</ele>
        <time>2016-01-03T08:03:44Z</time>
      </trkpt>
      <trkpt lat="49.14312" lon="7.27421">
        <ele>252.48</ele>
        <time>2016-01-03T08:03:59Z</time>
      </trkpt>
      <trkpt lat="49.14312" lon="7.27396">
        <ele>250.56</ele>
        <time>2016-01-03T08:04:15Z</time>
      </trkpt>
      <trkpt lat="49.14316" lon="7.27356">
        <ele>250.08</ele>
        <time>2016-01-03T08:04:36Z</time>
      </trkpt>
      <trkpt lat="49.14317" lon="7.27313">
        <ele>250.08</ele>
        <time>2016-01-03T08:04:58Z</time>
      </trkpt>
      <trkpt lat="49.14319" lon="7.27286">
        <ele>251.52</ele>
        <time>2016-01-03T08:05:11Z</time>
      </trkpt>
      <trkpt lat="49.14324" lon="7.27245">
        <ele>253.93</ele>
        <time>2016-01-03T08:05:32Z</time>
      </trkpt>
      <trkpt lat="49.14327" lon="7.27202">
        <ele>255.37</ele>
        <time>2016-01-03T08:05:53Z</time>
      </trkpt>
      <trkpt lat="49.1433" lon="7.27176">
        <ele>254.89</ele>
        <time>2016-01-03T08:06:07Z</time>
      </trkpt>
      <trkpt lat="49.14333" lon="7.27139">
        <ele>254.89</ele>
        <time>2016-01-03T08:06:27Z</time>
      </trkpt>
      <trkpt lat="49.14335" lon="7.27117">
        <ele>260.17</ele>
        <time>2016-01-03T08:06:40Z</time>
      </trkpt>
      <trkpt lat="49.14339" lon="7.27077">
        <ele>264.5</ele>
        <time>2016-01-03T08:07:00Z</time>
      </trkpt>
      <trkpt lat="49.14339" lon="7.27073">
        <ele>264.5</ele>
        <time>2016-01-03T08:07:02Z</time>
      </trkpt>
      <trkpt lat="49.14343" lon="7.27036">
        <ele>265.46</ele>
        <time>2016-01-03T08:07:22Z</time>
      </trkpt>
      <trkpt lat="49.14344" lon="7.26998">
        <ele>264.5</ele>
        <time>2016-01-03T08:07:40Z</time>
      </trkpt>
      <trkpt lat="49.14342" lon="7.26983">
        <ele>264.02</ele>
        <time>2016-01-03T08:07:49Z</time>
      </trkpt>
      <trkpt lat="49.14333" lon="7.2695">
        <ele>262.58</ele>
        <time>2016-01-03T08:08:08Z</time>
      </trkpt>
      <trkpt lat="49.14325" lon="7.26923">
        <ele>264.02</ele>
        <time>2016-01-03T08:08:24Z</time>
      </trkpt>
      <trkpt lat="49.14314" lon="7.2689">
        <ele>265.94</ele>
        <time>2016-01-03T08:08:45Z</time>
      </trkpt>
      <trkpt lat="49.14307" lon="7.26852">
        <ele>268.83</ele>
        <time>2016-01-03T08:09:06Z</time>
      </trkpt>
      <trkpt lat="49.14311" lon="7.26815">
        <ele>272.19</ele>
        <time>2016-01-03T08:09:26Z</time>
      </trkpt>
      <trkpt lat="49.14314" lon="7.26787">
        <ele>277.48</ele>
        <time>2016-01-03T08:09:41Z</time>
      </trkpt>
      <trkpt lat="49.14314" lon="7.26749">
        <ele>279.88</ele>
        <time>2016-01-03T08:10:01Z</time>
      </trkpt>
      <trkpt lat="49.14317" lon="7.26728">
        <ele>283.25</ele>
        <time>2016-01-03T08:10:13Z</time>
      </trkpt>
      <trkpt lat="49.14317" lon="7.2672">
        <ele>283.25</ele>
        <time>2016-01-03T08:10:17Z</time>
      </trkpt>
      <trkpt lat="49.14316" lon="7.26715">
        <ele>283.25</ele>
        <time>2016-01-03T08:10:20Z</time>
      </trkpt>
      <trkpt lat="49.1432" lon="7.2669">
        <ele>285.65</ele>
        <time>2016-01-03T08:10:34Z</time>
      </trkpt>
      <trkpt lat="49.14324" lon="7.26653">
        <ele>288.05</ele>
        <time>2016-01-03T08:10:55Z</time>
      </trkpt>
      <trkpt lat="49.14326" lon="7.26619">
        <ele>288.05</ele>
        <time>2016-01-03T08:11:14Z</time>
      </trkpt>
      <trkpt lat="49.14323" lon="7.26578">
        <ele>287.57</ele>
        <time>2016-01-03T08:11:34Z</time>
      </trkpt>
      <trkpt lat="49.14317" lon="7.26536">
        <ele>282.28</ele>
        <time>2016-01-03T08:11:57Z</time>
      </trkpt>
      <trkpt lat="49.14306" lon="7.26504">
        <ele>283.25</ele>
        <time>2016-01-03T08:12:18Z</time>
      </trkpt>
      <trkpt lat="49.14292" lon="7.26471">
        <ele>282.77</ele>
        <time>2016-01-03T08:12:39Z</time>
      </trkpt>
      <trkpt lat="49.14274" lon="7.26444">
        <ele>286.13</ele>
        <time>2016-01-03T08:13:01Z</time>
      </trkpt>
      <trkpt lat="49.14259" lon="7.2642">
        <ele>289.97</ele>
        <time>2016-01-03T08:13:21Z</time>
      </trkpt>
      <trkpt lat="49.14242" lon="7.26402">
        <ele>289.97</ele>
        <time>2016-01-03T08:13:40Z</time>
      </trkpt>
      <trkpt lat="49.14225" lon="7.26384">
        <ele>290.46</ele>
        <time>2016-01-03T08:14:00Z</time>
      </trkpt>
      <trkpt lat="49.14209" lon="7.26368">
        <ele>292.86</ele>
        <time>2016-01-03T08:14:19Z</time>
      </trkpt>
      <trkpt lat="49.14195" lon="7.26354">
        <ele>294.78</ele>
        <time>2016-01-03T08:14:36Z</time>
      </trkpt>
      <trkpt lat="49.14183" lon="7.26335">
        <ele>297.67</ele>
        <time>2016-01-03T08:14:54Z</time>
      </trkpt>
      <trkpt lat="49.14179" lon="7.26323">
        <ele>301.03</ele>
        <time>2016-01-03T08:15:11Z</time>
      </trkpt>
      <trkpt lat="49.14174" lon="7.26301">
        <ele>307.28</ele>
        <time>2016-01-03T08:15:29Z</time>
      </trkpt>
      <trkpt lat="49.14166" lon="7.26276">
        <ele>309.68</ele>
        <time>2016-01-03T08:15:49Z</time>
      </trkpt>
      <trkpt lat="49.14154" lon="7.26267">
        <ele>311.12</ele>
        <time>2016-01-03T08:16:06Z</time>
      </trkpt>
      <trkpt lat="49.14146" lon="7.26273">
        <ele>314.97</ele>
        <time>2016-01-03T08:16:24Z</time>
      </trkpt>
      <trkpt lat="49.14145" lon="7.26274">
        <ele>314.97</ele>
        <time>2016-01-03T08:16:25Z</time>
      </trkpt>
      <trkpt lat="49.1414" lon="7.26288">
        <ele>316.41</ele>
        <time>2016-01-03T08:16:43Z</time>
      </trkpt>
      <trkpt lat="49.14139" lon="7.26289">
        <ele>316.89</ele>
        <time>2016-01-03T08:17:09Z</time>
      </trkpt>
      <trkpt lat="49.14139" lon="7.26289">
        <ele>316.89</ele>
        <time>2016-01-03T08:17:40Z</time>
      </trkpt>
      <trkpt lat="49.14139" lon="7.26289">
        <ele>316.89</ele>
        <time>2016-01-03T08:18:08Z</time>
      </trkpt>
      <trkpt lat="49.14139" lon="7.26288">
        <ele>316.89</ele>
        <time>2016-01-03T08:18:38Z</time>
      </trkpt>
      <trkpt lat="49.14129" lon="7.26297">
        <ele>317.37</ele>
        <time>2016-01-03T08:19:07Z</time>
      </trkpt>
      <trkpt lat="49.1413" lon="7.26301">
        <ele>315.93</ele>
        <time>2016-01-03T08:19:34Z</time>
      </trkpt>
      <trkpt lat="49.14129" lon="7.26302">
        <ele>316.41</ele>
        <time>2016-01-03T08:20:02Z</time>
      </trkpt>
      <trkpt lat="49.14133" lon="7.26289">
        <ele>315.93</ele>
        <time>2016-01-03T08:20:23Z</time>
      </trkpt>
      <trkpt lat="49.14137" lon="7.26277">
        <ele>320.26</ele>
        <time>2016-01-03T08:20:41Z</time>
      </trkpt>
      <trkpt lat="49.14138" lon="7.26276">
        <ele>319.78</ele>
        <time>2016-01-03T08:20:55Z</time>
      </trkpt>
      <trkpt lat="49.14152" lon="7.26259">
        <ele>313.05</ele>
        <time>2016-01-03T08:21:11Z</time>
      </trkpt>
      <trkpt lat="49.14152" lon="7.26258">
        <ele>313.53</ele>
        <time>2016-01-03T08:21:12Z</time>
      </trkpt>
      <trkpt lat="49.14155" lon="7.26248">
        <ele>313.53</ele>
        <time>2016-01-03T08:21:19Z</time>
      </trkpt>
      <trkpt lat="49.14158" lon="7.26232">
        <ele>311.12</ele>
        <time>2016-01-03T08:21:30Z</time>
      </trkpt>
      <trkpt lat="49.14156" lon="7.26195">
        <ele>310.16</ele>
        <time>2016-01-03T08:21:50Z</time>
      </trkpt>
      <trkpt lat="49.14153" lon="7.26174">
        <ele>310.16</ele>
        <time>2016-01-03T08:22:03Z</time>
      </trkpt>
      <trkpt lat="49.1415" lon="7.26142">
        <ele>310.64</ele>
        <time>2016-01-03T08:22:21Z</time>
      </trkpt>
      <trkpt lat="49.14147" lon="7.26113">
        <ele>312.09</ele>
        <time>2016-01-03T08:22:38Z</time>
      </trkpt>
      <trkpt lat="49.14144" lon="7.26094">
        <ele>313.53</ele>
        <time>2016-01-03T08:22:50Z</time>
      </trkpt>
      <trkpt lat="49.14138" lon="7.26064">
        <ele>314.97</ele>
        <time>2016-01-03T08:23:08Z</time>
      </trkpt>
      <trkpt lat="49.14134" lon="7.26045">
        <ele>315.93</ele>
        <time>2016-01-03T08:23:21Z</time>
      </trkpt>
      <trkpt lat="49.14127" lon="7.26006">
        <ele>318.33</ele>
        <time>2016-01-03T08:23:43Z</time>
      </trkpt>
      <trkpt lat="49.14121" lon="7.25969">
        <ele>317.85</ele>
        <time>2016-01-03T08:24:04Z</time>
      </trkpt>
      <trkpt lat="49.14119" lon="7.25931">
        <ele>319.78</ele>
        <time>2016-01-03T08:24:23Z</time>
      </trkpt>
      <trkpt lat="49.14119" lon="7.25885">
        <ele>319.78</ele>
        <time>2016-01-03T08:24:46Z</time>
      </trkpt>
      <trkpt lat="49.14119" lon="7.25842">
        <ele>319.3</ele>
        <time>2016-01-03T08:25:08Z</time>
      </trkpt>
      <trkpt lat="49.14119" lon="7.25816">
        <ele>319.3</ele>
        <time>2016-01-03T08:25:23Z</time>
      </trkpt>
      <trkpt lat="49.14123" lon="7.25776">
        <ele>319.78</ele>
        <time>2016-01-03T08:25:45Z</time>
      </trkpt>
      <trkpt lat="49.14132" lon="7.25746">
        <ele>321.7</ele>
        <time>2016-01-03T08:26:04Z</time>
      </trkpt>
      <trkpt lat="49.14133" lon="7.25718">
        <ele>323.14</ele>
        <time>2016-01-03T08:26:21Z</time>
      </trkpt>
      <trkpt lat="49.14133" lon="7.25709">
        <ele>323.62</ele>
        <time>2016-01-03T08:26:27Z</time>
      </trkpt>
      <trkpt lat="49.14134" lon="7.25691">
        <ele>324.58</ele>
        <time>2016-01-03T08:26:43Z</time>
      </trkpt>
      <trkpt lat="49.14133" lon="7.25671">
        <ele>327.47</ele>
        <time>2016-01-03T08:26:55Z</time>
      </trkpt>
      <trkpt lat="49.14134" lon="7.25648">
        <ele>329.87</ele>
        <time>2016-01-03T08:27:11Z</time>
      </trkpt>
      <trkpt lat="49.14134" lon="7.25644">
        <ele>329.87</ele>
        <time>2016-01-03T08:27:13Z</time>
      </trkpt>
      <trkpt lat="49.14139" lon="7.25623">
        <ele>329.87</ele>
        <time>2016-01-03T08:27:25Z</time>
      </trkpt>
      <trkpt lat="49.14144" lon="7.25591">
        <ele>329.87</ele>
        <time>2016-01-03T08:27:43Z</time>
      </trkpt>
      <trkpt lat="49.14147" lon="7.25581">
        <ele>329.87</ele>
        <time>2016-01-03T08:27:49Z</time>
      </trkpt>
      <trkpt lat="49.14149" lon="7.25572">
        <ele>329.39</ele>
        <time>2016-01-03T08:27:54Z</time>
      </trkpt>
      <trkpt lat="49.14155" lon="7.25542">
        <ele>329.87</ele>
        <time>2016-01-03T08:28:12Z</time>
      </trkpt>
      <trkpt lat="49.14164" lon="7.25529">
        <ele>332.27</ele>
        <time>2016-01-03T08:28:26Z</time>
      </trkpt>
      <trkpt lat="49.1418" lon="7.25519">
        <ele>330.83</ele>
        <time>2016-01-03T08:28:43Z</time>
      </trkpt>
      <trkpt lat="49.14182" lon="7.25516">
        <ele>330.83</ele>
        <time>2016-01-03T08:28:47Z</time>
      </trkpt>
      <trkpt lat="49.14196" lon="7.2549">
        <ele>329.87</ele>
        <time>2016-01-03T08:29:09Z</time>
      </trkpt>
      <trkpt lat="49.14209" lon="7.25464">
        <ele>326.99</ele>
        <time>2016-01-03T08:29:28Z</time>
      </trkpt>
      <trkpt lat="49.14225" lon="7.25448">
        <ele>328.91</ele>
        <time>2016-01-03T08:29:48Z</time>
      </trkpt>
      <trkpt lat="49.14246" lon="7.25434">
        <ele>331.79</ele>
        <time>2016-01-03T08:30:08Z</time>
      </trkpt>
      <trkpt lat="49.14268" lon="7.25406">
        <ele>324.1</ele>
        <time>2016-01-03T08:30:25Z</time>
      </trkpt>
      <trkpt lat="49.14287" lon="7.25391">
        <ele>320.74</ele>
        <time>2016-01-03T08:30:43Z</time>
      </trkpt>
      <trkpt lat="49.1429" lon="7.25389">
        <ele>320.74</ele>
        <time>2016-01-03T08:30:46Z</time>
      </trkpt>
      <trkpt lat="49.14312" lon="7.2538">
        <ele>319.3</ele>
        <time>2016-01-03T08:31:07Z</time>
      </trkpt>
      <trkpt lat="49.14324" lon="7.25375">
        <ele>318.33</ele>
        <time>2016-01-03T08:31:22Z</time>
      </trkpt>
      <trkpt lat="49.14339" lon="7.25367">
        <ele>316.41</ele>
        <time>2016-01-03T08:31:39Z</time>
      </trkpt>
      <trkpt lat="49.14351" lon="7.25372">
        <ele>314.97</ele>
        <time>2016-01-03T08:31:53Z</time>
      </trkpt>
      <trkpt lat="49.14378" lon="7.25358">
        <ele>314.49</ele>
        <time>2016-01-03T08:32:15Z</time>
      </trkpt>
      <trkpt lat="49.14396" lon="7.25349">
        <ele>314.97</ele>
        <time>2016-01-03T08:32:32Z</time>
      </trkpt>
      <trkpt lat="49.14419" lon="7.25347">
        <ele>314.01</ele>
        <time>2016-01-03T08:32:52Z</time>
      </trkpt>
      <trkpt lat="49.14425" lon="7.25344">
        <ele>314.49</ele>
        <time>2016-01-03T08:32:59Z</time>
      </trkpt>
      <trkpt lat="49.14431" lon="7.25349">
        <ele>314.49</ele>
        <time>2016-01-03T08:33:05Z</time>
      </trkpt>
      <trkpt lat="49.14434" lon="7.25351">
        <ele>314.97</ele>
        <time>2016-01-03T08:33:08Z</time>
      </trkpt>
      <trkpt lat="49.14454" lon="7.25348">
        <ele>315.45</ele>
        <time>2016-01-03T08:33:26Z</time>
      </trkpt>
      <trkpt lat="49.14476" lon="7.25344">
        <ele>318.33</ele>
        <time>2016-01-03T08:33:46Z</time>
      </trkpt>
      <trkpt lat="49.14499" lon="7.25339">
        <ele>319.3</ele>
        <time>2016-01-03T08:34:06Z</time>
      </trkpt>
      <trkpt lat="49.14519" lon="7.25335">
        <ele>318.81</ele>
        <time>2016-01-03T08:34:23Z</time>
      </trkpt>
      <trkpt lat="49.14539" lon="7.25337">
        <ele>315.93</ele>
        <time>2016-01-03T08:34:41Z</time>
      </trkpt>
      <trkpt lat="49.14551" lon="7.25338">
        <ele>314.97</ele>
        <time>2016-01-03T08:34:51Z</time>
      </trkpt>
      <trkpt lat="49.14571" lon="7.25338">
        <ele>315.93</ele>
        <time>2016-01-03T08:35:10Z</time>
      </trkpt>
      <trkpt lat="49.14594" lon="7.25338">
        <ele>317.85</ele>
        <time>2016-01-03T08:35:31Z</time>
      </trkpt>
      <trkpt lat="49.14615" lon="7.25339">
        <ele>317.37</ele>
        <time>2016-01-03T08:35:48Z</time>
      </trkpt>
      <trkpt lat="49.14636" lon="7.25342">
        <ele>315.45</ele>
        <time>2016-01-03T08:36:05Z</time>
      </trkpt>
      <trkpt lat="49.14656" lon="7.25346">
        <ele>315.45</ele>
        <time>2016-01-03T08:36:23Z</time>
      </trkpt>
      <trkpt lat="49.14678" lon="7.2535">
        <ele>318.81</ele>
        <time>2016-01-03T08:36:41Z</time>
      </trkpt>
      <trkpt lat="49.14702" lon="7.25356">
        <ele>321.22</ele>
        <time>2016-01-03T08:37:02Z</time>
      </trkpt>
      <trkpt lat="49.14729" lon="7.25361">
        <ele>316.41</ele>
        <time>2016-01-03T08:37:23Z</time>
      </trkpt>
      <trkpt lat="49.14753" lon="7.25376">
        <ele>314.01</ele>
        <time>2016-01-03T08:37:43Z</time>
      </trkpt>
      <trkpt lat="49.14774" lon="7.2539">
        <ele>315.93</ele>
        <time>2016-01-03T08:38:03Z</time>
      </trkpt>
      <trkpt lat="49.14791" lon="7.25405">
        <ele>316.89</ele>
        <time>2016-01-03T08:38:21Z</time>
      </trkpt>
      <trkpt lat="49.14805" lon="7.25426">
        <ele>316.89</ele>
        <time>2016-01-03T08:38:40Z</time>
      </trkpt>
      <trkpt lat="49.14812" lon="7.25449">
        <ele>315.93</ele>
        <time>2016-01-03T08:38:54Z</time>
      </trkpt>
      <trkpt lat="49.14815" lon="7.25456">
        <ele>315.45</ele>
        <time>2016-01-03T08:38:58Z</time>
      </trkpt>
      <trkpt lat="49.14826" lon="7.25486">
        <ele>314.97</ele>
        <time>2016-01-03T08:39:18Z</time>
      </trkpt>
      <trkpt lat="49.14838" lon="7.25515">
        <ele>314.01</ele>
        <time>2016-01-03T08:39:37Z</time>
      </trkpt>
      <trkpt lat="49.14852" lon="7.25548">
        <ele>312.09</ele>
        <time>2016-01-03T08:39:58Z</time>
      </trkpt>
      <trkpt lat="49.14865" lon="7.25575">
        <ele>311.12</ele>
        <time>2016-01-03T08:40:17Z</time>
      </trkpt>
      <trkpt lat="49.14877" lon="7.25594">
        <ele>311.6</ele>
        <time>2016-01-03T08:40:34Z</time>
      </trkpt>
      <trkpt lat="49.14877" lon="7.25594">
        <ele>311.6</ele>
        <time>2016-01-03T08:40:51Z</time>
      </trkpt>
      <trkpt lat="49.14877" lon="7.25594">
        <ele>311.6</ele>
        <time>2016-01-03T08:41:14Z</time>
      </trkpt>
      <trkpt lat="49.14877" lon="7.25594">
        <ele>311.6</ele>
        <time>2016-01-03T08:41:28Z</time>
      </trkpt>
      <trkpt lat="49.14877" lon="7.25594">
        <ele>311.6</ele>
        <time>2016-01-03T08:41:48Z</time>
      </trkpt>
      <trkpt lat="49.14877" lon="7.25593">
        <ele>311.6</ele>
        <time>2016-01-03T08:42:05Z</time>
      </trkpt>
      <trkpt lat="49.14877" lon="7.25593">
        <ele>312.09</ele>
        <time>2016-01-03T08:42:18Z</time>
      </trkpt>
      <trkpt lat="49.14878" lon="7.25598">
        <ele>313.05</ele>
        <time>2016-01-03T08:42:46Z</time>
      </trkpt>
      <trkpt lat="49.14878" lon="7.25598">
        <ele>313.05</ele>
        <time>2016-01-03T08:43:12Z</time>
      </trkpt>
      <trkpt lat="49.14879" lon="7.25599">
        <ele>313.53</ele>
        <time>2016-01-03T08:43:35Z</time>
      </trkpt>
      <trkpt lat="49.14879" lon="7.256">
        <ele>313.53</ele>
        <time>2016-01-03T08:43:49Z</time>
      </trkpt>
      <trkpt lat="49.14883" lon="7.25607">
        <ele>313.53</ele>
        <time>2016-01-03T08:44:04Z</time>
      </trkpt>
      <trkpt lat="49.14877" lon="7.25599">
        <ele>313.05</ele>
        <time>2016-01-03T08:44:19Z</time>
      </trkpt>
      <trkpt lat="49.14877" lon="7.25599">
        <ele>312.57</ele>
        <time>2016-01-03T08:44:59Z</time>
      </trkpt>
      <trkpt lat="49.14877" lon="7.25599">
        <ele>312.57</ele>
        <time>2016-01-03T08:45:22Z</time>
      </trkpt>
      <trkpt lat="49.14877" lon="7.25599">
        <ele>312.57</ele>
        <time>2016-01-03T08:45:23Z</time>
      </trkpt>
      <trkpt lat="49.14881" lon="7.2561">
        <ele>313.53</ele>
        <time>2016-01-03T08:45:31Z</time>
      </trkpt>
      <trkpt lat="49.1488" lon="7.25614">
        <ele>313.53</ele>
        <time>2016-01-03T08:45:42Z</time>
      </trkpt>
      <trkpt lat="49.14877" lon="7.2563">
        <ele>312.09</ele>
        <time>2016-01-03T08:45:57Z</time>
      </trkpt>
      <trkpt lat="49.14863" lon="7.2568">
        <ele>309.2</ele>
        <time>2016-01-03T08:46:21Z</time>
      </trkpt>
      <trkpt lat="49.14848" lon="7.25736">
        <ele>303.91</ele>
        <time>2016-01-03T08:46:47Z</time>
      </trkpt>
      <trkpt lat="49.14837" lon="7.25785">
        <ele>296.22</ele>
        <time>2016-01-03T08:47:11Z</time>
      </trkpt>
      <trkpt lat="49.14827" lon="7.25837">
        <ele>292.86</ele>
        <time>2016-01-03T08:47:34Z</time>
      </trkpt>
      <trkpt lat="49.14812" lon="7.25877">
        <ele>290.94</ele>
        <time>2016-01-03T08:47:56Z</time>
      </trkpt>
      <trkpt lat="49.14785" lon="7.25933">
        <ele>285.17</ele>
        <time>2016-01-03T08:48:25Z</time>
      </trkpt>
      <trkpt lat="49.14765" lon="7.25983">
        <ele>279.88</ele>
        <time>2016-01-03T08:48:51Z</time>
      </trkpt>
      <trkpt lat="49.14742" lon="7.26026">
        <ele>278.44</ele>
        <time>2016-01-03T08:49:17Z</time>
      </trkpt>
      <trkpt lat="49.14734" lon="7.26045">
        <ele>277.48</ele>
        <time>2016-01-03T08:49:37Z</time>
      </trkpt>
      <trkpt lat="49.14734" lon="7.26043">
        <ele>276.04</ele>
        <time>2016-01-03T08:49:48Z</time>
      </trkpt>
      <trkpt lat="49.14734" lon="7.26044">
        <ele>276.04</ele>
        <time>2016-01-03T08:49:52Z</time>
      </trkpt>
      <trkpt lat="49.14711" lon="7.26066">
        <ele>270.27</ele>
        <time>2016-01-03T08:50:11Z</time>
      </trkpt>
      <trkpt lat="49.14683" lon="7.26098">
        <ele>269.31</ele>
        <time>2016-01-03T08:50:35Z</time>
      </trkpt>
      <trkpt lat="49.1466" lon="7.26129">
        <ele>264.02</ele>
        <time>2016-01-03T08:50:56Z</time>
      </trkpt>
      <trkpt lat="49.14642" lon="7.26171">
        <ele>260.17</ele>
        <time>2016-01-03T08:51:20Z</time>
      </trkpt>
      <trkpt lat="49.14626" lon="7.26211">
        <ele>260.65</ele>
        <time>2016-01-03T08:51:45Z</time>
      </trkpt>
      <trkpt lat="49.14606" lon="7.26245">
        <ele>259.21</ele>
        <time>2016-01-03T08:52:10Z</time>
      </trkpt>
      <trkpt lat="49.14595" lon="7.26287">
        <ele>261.14</ele>
        <time>2016-01-03T08:52:34Z</time>
      </trkpt>
      <trkpt lat="49.14593" lon="7.26339">
        <ele>258.73</ele>
        <time>2016-01-03T08:52:59Z</time>
      </trkpt>
      <trkpt lat="49.14595" lon="7.26407">
        <ele>258.25</ele>
        <time>2016-01-03T08:53:28Z</time>
      </trkpt>
      <trkpt lat="49.14598" lon="7.26466">
        <ele>261.14</ele>
        <time>2016-01-03T08:53:55Z</time>
      </trkpt>
      <trkpt lat="49.14601" lon="7.26512">
        <ele>259.21</ele>
        <time>2016-01-03T08:54:16Z</time>
      </trkpt>
      <trkpt lat="49.14604" lon="7.26562">
        <ele>258.73</ele>
        <time>2016-01-03T08:54:40Z</time>
      </trkpt>
      <trkpt lat="49.14608" lon="7.26599">
        <ele>257.77</ele>
        <time>2016-01-03T08:55:00Z</time>
      </trkpt>
      <trkpt lat="49.14611" lon="7.26639">
        <ele>256.33</ele>
        <time>2016-01-03T08:55:22Z</time>
      </trkpt>
      <trkpt lat="49.14612" lon="7.26683">
        <ele>256.81</ele>
        <time>2016-01-03T08:55:45Z</time>
      </trkpt>
      <trkpt lat="49.14608" lon="7.26719">
        <ele>257.77</ele>
        <time>2016-01-03T08:56:05Z</time>
      </trkpt>
      <trkpt lat="49.14599" lon="7.26753">
        <ele>260.17</ele>
        <time>2016-01-03T08:56:24Z</time>
      </trkpt>
      <trkpt lat="49.14594" lon="7.26792">
        <ele>263.06</ele>
        <time>2016-01-03T08:56:44Z</time>
      </trkpt>
      <trkpt lat="49.14591" lon="7.26806">
        <ele>263.06</ele>
        <time>2016-01-03T08:56:51Z</time>
      </trkpt>
      <trkpt lat="49.14589" lon="7.26808">
        <ele>262.58</ele>
        <time>2016-01-03T08:56:53Z</time>
      </trkpt>
      <trkpt lat="49.14563" lon="7.26793">
        <ele>262.1</ele>
        <time>2016-01-03T08:57:12Z</time>
      </trkpt>
      <trkpt lat="49.14545" lon="7.26774">
        <ele>263.06</ele>
        <time>2016-01-03T08:57:31Z</time>
      </trkpt>
      <trkpt lat="49.14525" lon="7.26763">
        <ele>264.98</ele>
        <time>2016-01-03T08:57:51Z</time>
      </trkpt>
      <trkpt lat="49.1451" lon="7.26743">
        <ele>266.42</ele>
        <time>2016-01-03T08:58:10Z</time>
      </trkpt>
      <trkpt lat="49.14509" lon="7.26738">
        <ele>266.42</ele>
        <time>2016-01-03T08:58:13Z</time>
      </trkpt>
      <trkpt lat="49.14508" lon="7.26728">
        <ele>267.38</ele>
        <time>2016-01-03T08:58:18Z</time>
      </trkpt>
      <trkpt lat="49.14505" lon="7.26723">
        <ele>267.86</ele>
        <time>2016-01-03T08:58:21Z</time>
      </trkpt>
      <trkpt lat="49.14503" lon="7.26722">
        <ele>267.86</ele>
        <time>2016-01-03T08:58:24Z</time>
      </trkpt>
      <trkpt lat="49.14499" lon="7.2672">
        <ele>266.42</ele>
        <time>2016-01-03T08:58:28Z</time>
      </trkpt>
      <trkpt lat="49.14497" lon="7.26716">
        <ele>266.42</ele>
        <time>2016-01-03T08:58:32Z</time>
      </trkpt>
      <trkpt lat="49.14495" lon="7.26692">
        <ele>269.79</ele>
        <time>2016-01-03T08:58:48Z</time>
      </trkpt>
      <trkpt lat="49.14483" lon="7.26661">
        <ele>270.27</ele>
        <time>2016-01-03T08:59:07Z</time>
      </trkpt>
      <trkpt lat="49.14482" lon="7.2666">
        <ele>270.27</ele>
        <time>2016-01-03T08:59:09Z</time>
      </trkpt>
      <trkpt lat="49.14464" lon="7.26668">
        <ele>270.75</ele>
        <time>2016-01-03T08:59:27Z</time>
      </trkpt>
      <trkpt lat="49.14464" lon="7.26668">
        <ele>270.75</ele>
        <time>2016-01-03T08:59:29Z</time>
      </trkpt>
      <trkpt lat="49.14465" lon="7.26675">
        <ele>270.27</ele>
        <time>2016-01-03T08:59:34Z</time>
      </trkpt>
      <trkpt lat="49.14464" lon="7.26682">
        <ele>272.67</ele>
        <time>2016-01-03T08:59:39Z</time>
      </trkpt>
      <trkpt lat="49.14471" lon="7.26686">
        <ele>273.63</ele>
        <time>2016-01-03T08:59:54Z</time>
      </trkpt>
      <trkpt lat="49.14471" lon="7.26688">
        <ele>273.63</ele>
        <time>2016-01-03T09:00:17Z</time>
      </trkpt>
      <trkpt lat="49.14484" lon="7.26698">
        <ele>272.67</ele>
        <time>2016-01-03T09:00:43Z</time>
      </trkpt>
      <trkpt lat="49.1449" lon="7.26695">
        <ele>271.23</ele>
        <time>2016-01-03T09:01:10Z</time>
      </trkpt>
      <trkpt lat="49.14475" lon="7.2672">
        <ele>264.98</ele>
        <time>2016-01-03T09:01:37Z</time>
      </trkpt>
      <trkpt lat="49.14474" lon="7.26719">
        <ele>264.98</ele>
        <time>2016-01-03T09:01:38Z</time>
      </trkpt>
      <trkpt lat="49.14473" lon="7.26677">
        <ele>241.91</ele>
        <time>2016-01-03T09:02:53Z</time>
      </trkpt>
      <trkpt lat="49.14482" lon="7.26697">
        <ele>270.27</ele>
        <time>2016-01-03T09:03:13Z</time>
      </trkpt>
      <trkpt lat="49.14475" lon="7.26695">
        <ele>272.67</ele>
        <time>2016-01-03T09:03:37Z</time>
      </trkpt>
      <trkpt lat="49.1447" lon="7.26694">
        <ele>271.71</ele>
        <time>2016-01-03T09:03:55Z</time>
      </trkpt>
      <trkpt lat="49.14466" lon="7.26691">
        <ele>270.75</ele>
        <time>2016-01-03T09:04:09Z</time>
      </trkpt>
      <trkpt lat="49.14467" lon="7.2669">
        <ele>269.79</ele>
        <time>2016-01-03T09:04:34Z</time>
      </trkpt>
      <trkpt lat="49.14467" lon="7.2669">
        <ele>269.79</ele>
        <time>2016-01-03T09:04:57Z</time>
      </trkpt>
      <trkpt lat="49.14467" lon="7.2669">
        <ele>269.79</ele>
        <time>2016-01-03T09:05:17Z</time>
      </trkpt>
      <trkpt lat="49.14467" lon="7.26689">
        <ele>269.79</ele>
        <time>2016-01-03T09:05:32Z</time>
      </trkpt>
      <trkpt lat="49.14467" lon="7.26689">
        <ele>269.79</ele>
        <time>2016-01-03T09:06:00Z</time>
      </trkpt>
      <trkpt lat="49.14467" lon="7.26689">
        <ele>269.79</ele>
        <time>2016-01-03T09:06:22Z</time>
      </trkpt>
      <trkpt lat="49.14467" lon="7.26688">
        <ele>269.79</ele>
        <time>2016-01-03T09:06:40Z</time>
      </trkpt>
      <trkpt lat="49.14467" lon="7.26688">
        <ele>269.79</ele>
        <time>2016-01-03T09:06:52Z</time>
      </trkpt>
      <trkpt lat="49.14464" lon="7.26687">
        <ele>268.83</ele>
        <time>2016-01-03T09:07:06Z</time>
      </trkpt>
      <trkpt lat="49.14458" lon="7.26664">
        <ele>264.5</ele>
        <time>2016-01-03T09:07:22Z</time>
      </trkpt>
      <trkpt lat="49.14458" lon="7.26663">
        <ele>264.5</ele>
        <time>2016-01-03T09:07:39Z</time>
      </trkpt>
      <trkpt lat="49.14456" lon="7.26664">
        <ele>266.42</ele>
        <time>2016-01-03T09:07:45Z</time>
      </trkpt>
      <trkpt lat="49.14446" lon="7.26674">
        <ele>267.86</ele>
        <time>2016-01-03T09:08:03Z</time>
      </trkpt>
      <trkpt lat="49.14444" lon="7.26682">
        <ele>269.79</ele>
        <time>2016-01-03T09:08:11Z</time>
      </trkpt>
      <trkpt lat="49.14445" lon="7.26696">
        <ele>268.35</ele>
        <time>2016-01-03T09:08:17Z</time>
      </trkpt>
      <trkpt lat="49.14446" lon="7.26718">
        <ele>269.79</ele>
        <time>2016-01-03T09:08:30Z</time>
      </trkpt>
      <trkpt lat="49.14455" lon="7.26746">
        <ele>269.31</ele>
        <time>2016-01-03T09:08:46Z</time>
      </trkpt>
      <trkpt lat="49.1446" lon="7.26765">
        <ele>265.94</ele>
        <time>2016-01-03T09:09:00Z</time>
      </trkpt>
      <trkpt lat="49.14458" lon="7.2677">
        <ele>266.42</ele>
        <time>2016-01-03T09:09:04Z</time>
      </trkpt>
      <trkpt lat="49.14464" lon="7.26797">
        <ele>265.46</ele>
        <time>2016-01-03T09:09:20Z</time>
      </trkpt>
      <trkpt lat="49.1447" lon="7.2683">
        <ele>264.98</ele>
        <time>2016-01-03T09:09:37Z</time>
      </trkpt>
      <trkpt lat="49.14477" lon="7.26861">
        <ele>263.06</ele>
        <time>2016-01-03T09:09:54Z</time>
      </trkpt>
      <trkpt lat="49.14484" lon="7.26904">
        <ele>261.62</ele>
        <time>2016-01-03T09:10:16Z</time>
      </trkpt>
      <trkpt lat="49.14488" lon="7.26941">
        <ele>257.77</ele>
        <time>2016-01-03T09:10:37Z</time>
      </trkpt>
      <trkpt lat="49.14489" lon="7.26953">
        <ele>256.33</ele>
        <time>2016-01-03T09:10:43Z</time>
      </trkpt>
      <trkpt lat="49.14491" lon="7.26999">
        <ele>253.93</ele>
        <time>2016-01-03T09:11:06Z</time>
      </trkpt>
      <trkpt lat="49.14494" lon="7.2705">
        <ele>252.96</ele>
        <time>2016-01-03T09:11:31Z</time>
      </trkpt>
      <trkpt lat="49.14499" lon="7.27101">
        <ele>253.93</ele>
        <time>2016-01-03T09:11:56Z</time>
      </trkpt>
      <trkpt lat="49.14504" lon="7.27147">
        <ele>252.96</ele>
        <time>2016-01-03T09:12:20Z</time>
      </trkpt>
      <trkpt lat="49.14506" lon="7.27193">
        <ele>252.96</ele>
        <time>2016-01-03T09:12:44Z</time>
      </trkpt>
      <trkpt lat="49.14505" lon="7.27223">
        <ele>252.48</ele>
        <time>2016-01-03T09:13:02Z</time>
      </trkpt>
      <trkpt lat="49.14504" lon="7.27229">
        <ele>252.96</ele>
        <time>2016-01-03T09:13:18Z</time>
      </trkpt>
      <trkpt lat="49.14504" lon="7.27272">
        <ele>254.89</ele>
        <time>2016-01-03T09:13:39Z</time>
      </trkpt>
      <trkpt lat="49.14504" lon="7.27319">
        <ele>252.96</ele>
        <time>2016-01-03T09:14:02Z</time>
      </trkpt>
      <trkpt lat="49.14503" lon="7.27328">
        <ele>252</ele>
        <time>2016-01-03T09:14:07Z</time>
      </trkpt>
      <trkpt lat="49.14502" lon="7.2736">
        <ele>251.52</ele>
        <time>2016-01-03T09:14:23Z</time>
      </trkpt>
      <trkpt lat="49.14502" lon="7.27408">
        <ele>250.56</ele>
        <time>2016-01-03T09:14:46Z</time>
      </trkpt>
      <trkpt lat="49.14501" lon="7.27462">
        <ele>251.04</ele>
        <time>2016-01-03T09:15:12Z</time>
      </trkpt>
      <trkpt lat="49.145" lon="7.27515">
        <ele>250.08</ele>
        <time>2016-01-03T09:15:39Z</time>
      </trkpt>
      <trkpt lat="49.14499" lon="7.27562">
        <ele>249.6</ele>
        <time>2016-01-03T09:16:04Z</time>
      </trkpt>
      <trkpt lat="49.14499" lon="7.27588">
        <ele>250.08</ele>
        <time>2016-01-03T09:16:19Z</time>
      </trkpt>
      <trkpt lat="49.14499" lon="7.27633">
        <ele>251.04</ele>
        <time>2016-01-03T09:16:42Z</time>
      </trkpt>
      <trkpt lat="49.14501" lon="7.27681">
        <ele>252</ele>
        <time>2016-01-03T09:17:06Z</time>
      </trkpt>
      <trkpt lat="49.14501" lon="7.2773">
        <ele>250.56</ele>
        <time>2016-01-03T09:17:30Z</time>
      </trkpt>
      <trkpt lat="49.14502" lon="7.27763">
        <ele>248.16</ele>
        <time>2016-01-03T09:17:49Z</time>
      </trkpt>
      <trkpt lat="49.14505" lon="7.278">
        <ele>247.2</ele>
        <time>2016-01-03T09:18:10Z</time>
      </trkpt>
      <trkpt lat="49.14506" lon="7.27837">
        <ele>245.75</ele>
        <time>2016-01-03T09:18:30Z</time>
      </trkpt>
      <trkpt lat="49.14503" lon="7.27878">
        <ele>245.75</ele>
        <time>2016-01-03T09:18:52Z</time>
      </trkpt>
      <trkpt lat="49.14501" lon="7.27916">
        <ele>244.79</ele>
        <time>2016-01-03T09:19:13Z</time>
      </trkpt>
      <trkpt lat="49.14507" lon="7.27955">
        <ele>242.87</ele>
        <time>2016-01-03T09:19:35Z</time>
      </trkpt>
      <trkpt lat="49.14507" lon="7.27979">
        <ele>240.47</ele>
        <time>2016-01-03T09:19:49Z</time>
      </trkpt>
      <trkpt lat="49.14504" lon="7.2802">
        <ele>239.51</ele>
        <time>2016-01-03T09:20:11Z</time>
      </trkpt>
      <trkpt lat="49.14503" lon="7.28036">
        <ele>238.54</ele>
        <time>2016-01-03T09:20:19Z</time>
      </trkpt>
      <trkpt lat="49.14501" lon="7.28077">
        <ele>238.06</ele>
        <time>2016-01-03T09:20:40Z</time>
      </trkpt>
      <trkpt lat="49.145" lon="7.28106">
        <ele>238.06</ele>
        <time>2016-01-03T09:20:56Z</time>
      </trkpt>
      <trkpt lat="49.14498" lon="7.28142">
        <ele>238.06</ele>
        <time>2016-01-03T09:21:16Z</time>
      </trkpt>
      <trkpt lat="49.14498" lon="7.28175">
        <ele>238.06</ele>
        <time>2016-01-03T09:21:34Z</time>
      </trkpt>
      <trkpt lat="49.14497" lon="7.28206">
        <ele>238.06</ele>
        <time>2016-01-03T09:21:51Z</time>
      </trkpt>
      <trkpt lat="49.14496" lon="7.2824">
        <ele>239.99</ele>
        <time>2016-01-03T09:22:10Z</time>
      </trkpt>
      <trkpt lat="49.14496" lon="7.28271">
        <ele>239.02</ele>
        <time>2016-01-03T09:22:27Z</time>
      </trkpt>
      <trkpt lat="49.14493" lon="7.28307">
        <ele>238.06</ele>
        <time>2016-01-03T09:22:46Z</time>
      </trkpt>
      <trkpt lat="49.1449" lon="7.28338">
        <ele>237.1</ele>
        <time>2016-01-03T09:23:03Z</time>
      </trkpt>
      <trkpt lat="49.14487" lon="7.28365">
        <ele>237.58</ele>
        <time>2016-01-03T09:23:21Z</time>
      </trkpt>
      <trkpt lat="49.14484" lon="7.28395">
        <ele>237.58</ele>
        <time>2016-01-03T09:23:39Z</time>
      </trkpt>
      <trkpt lat="49.14481" lon="7.28418">
        <ele>237.1</ele>
        <time>2016-01-03T09:23:54Z</time>
      </trkpt>
      <trkpt lat="49.14476" lon="7.28428">
        <ele>237.58</ele>
        <time>2016-01-03T09:24:02Z</time>
      </trkpt>
      <trkpt lat="49.14471" lon="7.28434">
        <ele>238.06</ele>
        <time>2016-01-03T09:24:18Z</time>
      </trkpt>
      <trkpt lat="49.14465" lon="7.28437">
        <ele>237.58</ele>
        <time>2016-01-03T09:24:33Z</time>
      </trkpt>
      <trkpt lat="49.14465" lon="7.28437">
        <ele>237.58</ele>
        <time>2016-01-03T09:24:49Z</time>
      </trkpt>
      <trkpt lat="49.14465" lon="7.28437">
        <ele>237.58</ele>
        <time>2016-01-03T09:25:04Z</time>
      </trkpt>
      <trkpt lat="49.14464" lon="7.28437">
        <ele>237.58</ele>
        <time>2016-01-03T09:25:26Z</time>
      </trkpt>
      <trkpt lat="49.14464" lon="7.28437">
        <ele>237.58</ele>
        <time>2016-01-03T09:25:50Z</time>
      </trkpt>
      <trkpt lat="49.14464" lon="7.28437">
        <ele>237.1</ele>
        <time>2016-01-03T09:26:11Z</time>
      </trkpt>
      <trkpt lat="49.14454" lon="7.28437">
        <ele>237.58</ele>
        <time>2016-01-03T09:26:23Z</time>
      </trkpt>
      <trkpt lat="49.14449" lon="7.28438">
        <ele>236.62</ele>
        <time>2016-01-03T09:26:27Z</time>
      </trkpt>
      <trkpt lat="49.14436" lon="7.28438">
        <ele>237.58</ele>
        <time>2016-01-03T09:26:38Z</time>
      </trkpt>
      <trkpt lat="49.14418" lon="7.28411">
        <ele>239.02</ele>
        <time>2016-01-03T09:26:59Z</time>
      </trkpt>
      <trkpt lat="49.14415" lon="7.28405">
        <ele>239.51</ele>
        <time>2016-01-03T09:27:03Z</time>
      </trkpt>
      <trkpt lat="49.14405" lon="7.28376">
        <ele>239.99</ele>
        <time>2016-01-03T09:27:20Z</time>
      </trkpt>
      <trkpt lat="49.14391" lon="7.28335">
        <ele>241.91</ele>
        <time>2016-01-03T09:27:44Z</time>
      </trkpt>
      <trkpt lat="49.14383" lon="7.28302">
        <ele>241.91</ele>
        <time>2016-01-03T09:28:03Z</time>
      </trkpt>
      <trkpt lat="49.14376" lon="7.2826">
        <ele>242.87</ele>
        <time>2016-01-03T09:28:26Z</time>
      </trkpt>
      <trkpt lat="49.14371" lon="7.28216">
        <ele>243.35</ele>
        <time>2016-01-03T09:28:49Z</time>
      </trkpt>
      <trkpt lat="49.1437" lon="7.28196">
        <ele>243.83</ele>
        <time>2016-01-03T09:29:00Z</time>
      </trkpt>
      <trkpt lat="49.14368" lon="7.28191">
        <ele>244.31</ele>
        <time>2016-01-03T09:29:04Z</time>
      </trkpt>
      <trkpt lat="49.14348" lon="7.28186">
        <ele>244.79</ele>
        <time>2016-01-03T09:29:24Z</time>
      </trkpt>
      <trkpt lat="49.1433" lon="7.28186">
        <ele>244.31</ele>
        <time>2016-01-03T09:29:39Z</time>
      </trkpt>
      <trkpt lat="49.14326" lon="7.28191">
        <ele>243.35</ele>
        <time>2016-01-03T09:29:43Z</time>
      </trkpt>
      <trkpt lat="49.14325" lon="7.28199">
        <ele>242.39</ele>
        <time>2016-01-03T09:29:47Z</time>
      </trkpt>
      <trkpt lat="49.14329" lon="7.28228">
        <ele>239.02</ele>
        <time>2016-01-03T09:30:07Z</time>
      </trkpt>
      <trkpt lat="49.14339" lon="7.28267">
        <ele>236.62</ele>
        <time>2016-01-03T09:30:29Z</time>
      </trkpt>
      <trkpt lat="49.14344" lon="7.28305">
        <ele>234.7</ele>
        <time>2016-01-03T09:30:50Z</time>
      </trkpt>
      <trkpt lat="49.14352" lon="7.28349">
        <ele>233.26</ele>
        <time>2016-01-03T09:31:12Z</time>
      </trkpt>
      <trkpt lat="49.14358" lon="7.28391">
        <ele>230.85</ele>
        <time>2016-01-03T09:31:34Z</time>
      </trkpt>
      <trkpt lat="49.14359" lon="7.28396">
        <ele>231.33</ele>
        <time>2016-01-03T09:31:38Z</time>
      </trkpt>
      <trkpt lat="49.14362" lon="7.2843">
        <ele>232.78</ele>
        <time>2016-01-03T09:31:58Z</time>
      </trkpt>
      <trkpt lat="49.1436" lon="7.28469">
        <ele>234.7</ele>
        <time>2016-01-03T09:32:19Z</time>
      </trkpt>
      <trkpt lat="49.1435" lon="7.28501">
        <ele>233.74</ele>
        <time>2016-01-03T09:32:37Z</time>
      </trkpt>
      <trkpt lat="49.14346" lon="7.28526">
        <ele>232.3</ele>
        <time>2016-01-03T09:32:57Z</time>
      </trkpt>
      <trkpt lat="49.14345" lon="7.28533">
        <ele>231.81</ele>
        <time>2016-01-03T09:33:03Z</time>
      </trkpt>
      <trkpt lat="49.14344" lon="7.2855">
        <ele>230.85</ele>
        <time>2016-01-03T09:33:11Z</time>
      </trkpt>
      <trkpt lat="49.14343" lon="7.28593">
        <ele>227.49</ele>
        <time>2016-01-03T09:33:32Z</time>
      </trkpt>
      <trkpt lat="49.1434" lon="7.28632">
        <ele>223.64</ele>
        <time>2016-01-03T09:33:52Z</time>
      </trkpt>
      <trkpt lat="49.14343" lon="7.28665">
        <ele>222.68</ele>
        <time>2016-01-03T09:34:11Z</time>
      </trkpt>
      <trkpt lat="49.14345" lon="7.28677">
        <ele>222.68</ele>
        <time>2016-01-03T09:34:18Z</time>
      </trkpt>
      <trkpt lat="49.14335" lon="7.28709">
        <ele>221.24</ele>
        <time>2016-01-03T09:34:38Z</time>
      </trkpt>
      <trkpt lat="49.14319" lon="7.28737">
        <ele>220.28</ele>
        <time>2016-01-03T09:34:59Z</time>
      </trkpt>
      <trkpt lat="49.14302" lon="7.28764">
        <ele>220.76</ele>
        <time>2016-01-03T09:35:18Z</time>
      </trkpt>
      <trkpt lat="49.14286" lon="7.2879">
        <ele>220.76</ele>
        <time>2016-01-03T09:35:36Z</time>
      </trkpt>
      <trkpt lat="49.14272" lon="7.28821">
        <ele>220.76</ele>
        <time>2016-01-03T09:35:57Z</time>
      </trkpt>
      <trkpt lat="49.14262" lon="7.28843">
        <ele>221.72</ele>
        <time>2016-01-03T09:36:12Z</time>
      </trkpt>
      <trkpt lat="49.14252" lon="7.28864">
        <ele>222.2</ele>
        <time>2016-01-03T09:36:30Z</time>
      </trkpt>
      <trkpt lat="49.14243" lon="7.28896">
        <ele>224.12</ele>
        <time>2016-01-03T09:36:49Z</time>
      </trkpt>
      <trkpt lat="49.14235" lon="7.28926">
        <ele>227.97</ele>
        <time>2016-01-03T09:37:07Z</time>
      </trkpt>
      <trkpt lat="49.14228" lon="7.28958">
        <ele>230.85</ele>
        <time>2016-01-03T09:37:26Z</time>
      </trkpt>
      <trkpt lat="49.14222" lon="7.28987">
        <ele>232.78</ele>
        <time>2016-01-03T09:37:43Z</time>
      </trkpt>
      <trkpt lat="49.14212" lon="7.2902">
        <ele>232.78</ele>
        <time>2016-01-03T09:38:03Z</time>
      </trkpt>
      <trkpt lat="49.14206" lon="7.29049">
        <ele>234.22</ele>
        <time>2016-01-03T09:38:21Z</time>
      </trkpt>
      <trkpt lat="49.14195" lon="7.29077">
        <ele>236.62</ele>
        <time>2016-01-03T09:38:40Z</time>
      </trkpt>
      <trkpt lat="49.14183" lon="7.29103">
        <ele>240.95</ele>
        <time>2016-01-03T09:38:59Z</time>
      </trkpt>
      <trkpt lat="49.14176" lon="7.29133">
        <ele>245.27</ele>
        <time>2016-01-03T09:39:17Z</time>
      </trkpt>
      <trkpt lat="49.14174" lon="7.29175">
        <ele>243.83</ele>
        <time>2016-01-03T09:39:38Z</time>
      </trkpt>
      <trkpt lat="49.14176" lon="7.29203">
        <ele>243.83</ele>
        <time>2016-01-03T09:39:52Z</time>
      </trkpt>
      <trkpt lat="49.14179" lon="7.29221">
        <ele>244.31</ele>
        <time>2016-01-03T09:40:02Z</time>
      </trkpt>
      <trkpt lat="49.14186" lon="7.29264">
        <ele>245.27</ele>
        <time>2016-01-03T09:40:26Z</time>
      </trkpt>
      <trkpt lat="49.1419" lon="7.29297">
        <ele>244.31</ele>
        <time>2016-01-03T09:40:44Z</time>
      </trkpt>
      <trkpt lat="49.14191" lon="7.29303">
        <ele>243.83</ele>
        <time>2016-01-03T09:40:47Z</time>
      </trkpt>
      <trkpt lat="49.14196" lon="7.29346">
        <ele>244.31</ele>
        <time>2016-01-03T09:41:10Z</time>
      </trkpt>
      <trkpt lat="49.14205" lon="7.29385">
        <ele>244.31</ele>
        <time>2016-01-03T09:41:32Z</time>
      </trkpt>
      <trkpt lat="49.14224" lon="7.29414">
        <ele>247.2</ele>
        <time>2016-01-03T09:41:55Z</time>
      </trkpt>
      <trkpt lat="49.14238" lon="7.29444">
        <ele>249.12</ele>
        <time>2016-01-03T09:42:16Z</time>
      </trkpt>
      <trkpt lat="49.14247" lon="7.29448">
        <ele>248.16</ele>
        <time>2016-01-03T09:42:33Z</time>
      </trkpt>
      <trkpt lat="49.14247" lon="7.29448">
        <ele>248.16</ele>
        <time>2016-01-03T09:43:03Z</time>
      </trkpt>
      <trkpt lat="49.14247" lon="7.29448">
        <ele>247.68</ele>
        <time>2016-01-03T09:43:42Z</time>
      </trkpt>
      <trkpt lat="49.14243" lon="7.29451">
        <ele>248.16</ele>
        <time>2016-01-03T09:43:49Z</time>
      </trkpt>
      <trkpt lat="49.14247" lon="7.29497">
        <ele>251.04</ele>
        <time>2016-01-03T09:44:13Z</time>
      </trkpt>
      <trkpt lat="49.14247" lon="7.29534">
        <ele>253.93</ele>
        <time>2016-01-03T09:44:33Z</time>
      </trkpt>
      <trkpt lat="49.14247" lon="7.29538">
        <ele>253.93</ele>
        <time>2016-01-03T09:44:35Z</time>
      </trkpt>
      <trkpt lat="49.14245" lon="7.29582">
        <ele>254.89</ele>
        <time>2016-01-03T09:44:57Z</time>
      </trkpt>
      <trkpt lat="49.14243" lon="7.29617">
        <ele>256.33</ele>
        <time>2016-01-03T09:45:15Z</time>
      </trkpt>
      <trkpt lat="49.14243" lon="7.29652">
        <ele>256.81</ele>
        <time>2016-01-03T09:45:32Z</time>
      </trkpt>
      <trkpt lat="49.14241" lon="7.29665">
        <ele>259.69</ele>
        <time>2016-01-03T09:45:39Z</time>
      </trkpt>
      <trkpt lat="49.14239" lon="7.29701">
        <ele>264.98</ele>
        <time>2016-01-03T09:45:58Z</time>
      </trkpt>
      <trkpt lat="49.14237" lon="7.29716">
        <ele>268.35</ele>
        <time>2016-01-03T09:46:06Z</time>
      </trkpt>
      <trkpt lat="49.14233" lon="7.2975">
        <ele>276.04</ele>
        <time>2016-01-03T09:46:25Z</time>
      </trkpt>
      <trkpt lat="49.14231" lon="7.29782">
        <ele>288.53</ele>
        <time>2016-01-03T09:46:43Z</time>
      </trkpt>
      <trkpt lat="49.14228" lon="7.29814">
        <ele>295.26</ele>
        <time>2016-01-03T09:47:00Z</time>
      </trkpt>
      <trkpt lat="49.14222" lon="7.29845">
        <ele>303.91</ele>
        <time>2016-01-03T09:47:19Z</time>
      </trkpt>
      <trkpt lat="49.14222" lon="7.29856">
        <ele>308.24</ele>
        <time>2016-01-03T09:47:26Z</time>
      </trkpt>
      <trkpt lat="49.14213" lon="7.29892">
        <ele>307.28</ele>
        <time>2016-01-03T09:47:44Z</time>
      </trkpt>
      <trkpt lat="49.14211" lon="7.29942">
        <ele>289.97</ele>
        <time>2016-01-03T09:48:01Z</time>
      </trkpt>
      <trkpt lat="49.14205" lon="7.29977">
        <ele>282.77</ele>
        <time>2016-01-03T09:48:18Z</time>
      </trkpt>
      <trkpt lat="49.14191" lon="7.30016">
        <ele>274.59</ele>
        <time>2016-01-03T09:48:39Z</time>
      </trkpt>
      <trkpt lat="49.14173" lon="7.30051">
        <ele>267.86</ele>
        <time>2016-01-03T09:49:00Z</time>
      </trkpt>
      <trkpt lat="49.14155" lon="7.30083">
        <ele>264.5</ele>
        <time>2016-01-03T09:49:22Z</time>
      </trkpt>
      <trkpt lat="49.14138" lon="7.30113">
        <ele>262.1</ele>
        <time>2016-01-03T09:49:44Z</time>
      </trkpt>
      <trkpt lat="49.14118" lon="7.30151">
        <ele>258.25</ele>
        <time>2016-01-03T09:50:10Z</time>
      </trkpt>
      <trkpt lat="49.14098" lon="7.30186">
        <ele>257.29</ele>
        <time>2016-01-03T09:50:34Z</time>
      </trkpt>
      <trkpt lat="49.14079" lon="7.30222">
        <ele>254.41</ele>
        <time>2016-01-03T09:50:58Z</time>
      </trkpt>
      <trkpt lat="49.14061" lon="7.30263">
        <ele>252.96</ele>
        <time>2016-01-03T09:51:24Z</time>
      </trkpt>
      <trkpt lat="49.14046" lon="7.30298">
        <ele>251.52</ele>
        <time>2016-01-03T09:51:46Z</time>
      </trkpt>
      <trkpt lat="49.14035" lon="7.30334">
        <ele>253.44</ele>
        <time>2016-01-03T09:52:07Z</time>
      </trkpt>
      <trkpt lat="49.1403" lon="7.30368">
        <ele>253.93</ele>
        <time>2016-01-03T09:52:26Z</time>
      </trkpt>
      <trkpt lat="49.14033" lon="7.30407">
        <ele>257.29</ele>
        <time>2016-01-03T09:52:47Z</time>
      </trkpt>
      <trkpt lat="49.14034" lon="7.30433">
        <ele>257.77</ele>
        <time>2016-01-03T09:53:03Z</time>
      </trkpt>
      <trkpt lat="49.14033" lon="7.30467">
        <ele>258.73</ele>
        <time>2016-01-03T09:53:22Z</time>
      </trkpt>
      <trkpt lat="49.14029" lon="7.30494">
        <ele>260.17</ele>
        <time>2016-01-03T09:53:38Z</time>
      </trkpt>
      <trkpt lat="49.14021" lon="7.30521">
        <ele>260.65</ele>
        <time>2016-01-03T09:53:56Z</time>
      </trkpt>
      <trkpt lat="49.14019" lon="7.30524">
        <ele>260.65</ele>
        <time>2016-01-03T09:53:58Z</time>
      </trkpt>
      <trkpt lat="49.14013" lon="7.30539">
        <ele>261.62</ele>
        <time>2016-01-03T09:54:09Z</time>
      </trkpt>
      <trkpt lat="49.14001" lon="7.30563">
        <ele>262.58</ele>
        <time>2016-01-03T09:54:28Z</time>
      </trkpt>
      <trkpt lat="49.13992" lon="7.30583">
        <ele>262.1</ele>
        <time>2016-01-03T09:54:43Z</time>
      </trkpt>
      <trkpt lat="49.13989" lon="7.30599">
        <ele>262.58</ele>
        <time>2016-01-03T09:54:54Z</time>
      </trkpt>
      <trkpt lat="49.13986" lon="7.30624">
        <ele>265.46</ele>
        <time>2016-01-03T09:55:12Z</time>
      </trkpt>
      <trkpt lat="49.13985" lon="7.30638">
        <ele>268.35</ele>
        <time>2016-01-03T09:55:21Z</time>
      </trkpt>
      <trkpt lat="49.13981" lon="7.30666">
        <ele>269.31</ele>
        <time>2016-01-03T09:55:38Z</time>
      </trkpt>
      <trkpt lat="49.13977" lon="7.3069">
        <ele>270.27</ele>
        <time>2016-01-03T09:55:54Z</time>
      </trkpt>
      <trkpt lat="49.13968" lon="7.30717">
        <ele>270.27</ele>
        <time>2016-01-03T09:56:13Z</time>
      </trkpt>
      <trkpt lat="49.13957" lon="7.30732">
        <ele>274.59</ele>
        <time>2016-01-03T09:56:29Z</time>
      </trkpt>
      <trkpt lat="49.13945" lon="7.30745">
        <ele>273.15</ele>
        <time>2016-01-03T09:56:43Z</time>
      </trkpt>
      <trkpt lat="49.13936" lon="7.30756">
        <ele>274.11</ele>
        <time>2016-01-03T09:57:00Z</time>
      </trkpt>
      <trkpt lat="49.13924" lon="7.30778">
        <ele>276.04</ele>
        <time>2016-01-03T09:57:17Z</time>
      </trkpt>
      <trkpt lat="49.13916" lon="7.3079">
        <ele>275.56</ele>
        <time>2016-01-03T09:57:26Z</time>
      </trkpt>
      <trkpt lat="49.13906" lon="7.30807">
        <ele>277.96</ele>
        <time>2016-01-03T09:57:42Z</time>
      </trkpt>
      <trkpt lat="49.13892" lon="7.3083">
        <ele>282.77</ele>
        <time>2016-01-03T09:58:02Z</time>
      </trkpt>
      <trkpt lat="49.13878" lon="7.30851">
        <ele>284.21</ele>
        <time>2016-01-03T09:58:20Z</time>
      </trkpt>
      <trkpt lat="49.13864" lon="7.30871">
        <ele>287.09</ele>
        <time>2016-01-03T09:58:38Z</time>
      </trkpt>
      <trkpt lat="49.13849" lon="7.30888">
        <ele>289.49</ele>
        <time>2016-01-03T09:58:57Z</time>
      </trkpt>
      <trkpt lat="49.13833" lon="7.309">
        <ele>290.46</ele>
        <time>2016-01-03T09:59:14Z</time>
      </trkpt>
      <trkpt lat="49.13822" lon="7.3091">
        <ele>290.46</ele>
        <time>2016-01-03T09:59:26Z</time>
      </trkpt>
      <trkpt lat="49.13814" lon="7.30916">
        <ele>290.46</ele>
        <time>2016-01-03T09:59:44Z</time>
      </trkpt>
      <trkpt lat="49.13808" lon="7.3092">
        <ele>290.94</ele>
        <time>2016-01-03T10:00:03Z</time>
      </trkpt>
      <trkpt lat="49.13792" lon="7.30931">
        <ele>278.44</ele>
        <time>2016-01-03T10:00:20Z</time>
      </trkpt>
      <trkpt lat="49.13776" lon="7.30939">
        <ele>262.58</ele>
        <time>2016-01-03T10:00:36Z</time>
      </trkpt>
      <trkpt lat="49.13757" lon="7.3095">
        <ele>252.48</ele>
        <time>2016-01-03T10:00:49Z</time>
      </trkpt>
      <trkpt lat="49.13744" lon="7.30958">
        <ele>246.72</ele>
        <time>2016-01-03T10:01:06Z</time>
      </trkpt>
      <trkpt lat="49.13744" lon="7.30958">
        <ele>246.72</ele>
        <time>2016-01-03T10:01:24Z</time>
      </trkpt>
      <trkpt lat="49.13741" lon="7.30965">
        <ele>261.62</ele>
        <time>2016-01-03T10:01:39Z</time>
      </trkpt>
      <trkpt lat="49.1374" lon="7.30967">
        <ele>263.06</ele>
        <time>2016-01-03T10:01:40Z</time>
      </trkpt>
      <trkpt lat="49.13721" lon="7.30986">
        <ele>287.09</ele>
        <time>2016-01-03T10:02:01Z</time>
      </trkpt>
      <trkpt lat="49.13705" lon="7.31002">
        <ele>294.78</ele>
        <time>2016-01-03T10:02:19Z</time>
      </trkpt>
      <trkpt lat="49.137" lon="7.31007">
        <ele>299.59</ele>
        <time>2016-01-03T10:02:37Z</time>
      </trkpt>
      <trkpt lat="49.13687" lon="7.31011">
        <ele>312.09</ele>
        <time>2016-01-03T10:02:55Z</time>
      </trkpt>
      <trkpt lat="49.13687" lon="7.31012">
        <ele>313.05</ele>
        <time>2016-01-03T10:03:12Z</time>
      </trkpt>
      <trkpt lat="49.13669" lon="7.31012">
        <ele>318.33</ele>
        <time>2016-01-03T10:03:30Z</time>
      </trkpt>
      <trkpt lat="49.13655" lon="7.31012">
        <ele>321.7</ele>
        <time>2016-01-03T10:03:42Z</time>
      </trkpt>
      <trkpt lat="49.13636" lon="7.31013">
        <ele>324.58</ele>
        <time>2016-01-03T10:04:01Z</time>
      </trkpt>
      <trkpt lat="49.13616" lon="7.31012">
        <ele>327.47</ele>
        <time>2016-01-03T10:04:20Z</time>
      </trkpt>
      <trkpt lat="49.13594" lon="7.31006">
        <ele>328.43</ele>
        <time>2016-01-03T10:04:41Z</time>
      </trkpt>
      <trkpt lat="49.13578" lon="7.31001">
        <ele>328.43</ele>
        <time>2016-01-03T10:04:57Z</time>
      </trkpt>
      <trkpt lat="49.1357" lon="7.30996">
        <ele>328.43</ele>
        <time>2016-01-03T10:05:05Z</time>
      </trkpt>
      <trkpt lat="49.13551" lon="7.30985">
        <ele>329.39</ele>
        <time>2016-01-03T10:05:25Z</time>
      </trkpt>
      <trkpt lat="49.13541" lon="7.30984">
        <ele>328.43</ele>
        <time>2016-01-03T10:05:40Z</time>
      </trkpt>
      <trkpt lat="49.13541" lon="7.30983">
        <ele>327.95</ele>
        <time>2016-01-03T10:06:00Z</time>
      </trkpt>
      <trkpt lat="49.13542" lon="7.3098">
        <ele>327.95</ele>
        <time>2016-01-03T10:06:15Z</time>
      </trkpt>
      <trkpt lat="49.13541" lon="7.30981">
        <ele>327.47</ele>
        <time>2016-01-03T10:06:33Z</time>
      </trkpt>
      <trkpt lat="49.13541" lon="7.30981">
        <ele>327.47</ele>
        <time>2016-01-03T10:06:56Z</time>
      </trkpt>
      <trkpt lat="49.13541" lon="7.30981">
        <ele>326.99</ele>
        <time>2016-01-03T10:07:15Z</time>
      </trkpt>
      <trkpt lat="49.13532" lon="7.30976">
        <ele>327.47</ele>
        <time>2016-01-03T10:07:28Z</time>
      </trkpt>
      <trkpt lat="49.13511" lon="7.30968">
        <ele>327.47</ele>
        <time>2016-01-03T10:07:47Z</time>
      </trkpt>
      <trkpt lat="49.13489" lon="7.30959">
        <ele>326.99</ele>
        <time>2016-01-03T10:08:07Z</time>
      </trkpt>
      <trkpt lat="49.13468" lon="7.30959">
        <ele>324.1</ele>
        <time>2016-01-03T10:08:27Z</time>
      </trkpt>
      <trkpt lat="49.1345" lon="7.30958">
        <ele>324.1</ele>
        <time>2016-01-03T10:08:43Z</time>
      </trkpt>
      <trkpt lat="49.1343" lon="7.30953">
        <ele>322.66</ele>
        <time>2016-01-03T10:09:01Z</time>
      </trkpt>
      <trkpt lat="49.13414" lon="7.3095">
        <ele>322.66</ele>
        <time>2016-01-03T10:09:16Z</time>
      </trkpt>
      <trkpt lat="49.13399" lon="7.30954">
        <ele>322.18</ele>
        <time>2016-01-03T10:09:32Z</time>
      </trkpt>
      <trkpt lat="49.13387" lon="7.30957">
        <ele>321.22</ele>
        <time>2016-01-03T10:09:49Z</time>
      </trkpt>
      <trkpt lat="49.13375" lon="7.30961">
        <ele>318.33</ele>
        <time>2016-01-03T10:10:06Z</time>
      </trkpt>
      <trkpt lat="49.13359" lon="7.30982">
        <ele>316.41</ele>
        <time>2016-01-03T10:10:24Z</time>
      </trkpt>
      <trkpt lat="49.13342" lon="7.3101">
        <ele>317.37</ele>
        <time>2016-01-03T10:10:46Z</time>
      </trkpt>
      <trkpt lat="49.13321" lon="7.31023">
        <ele>316.89</ele>
        <time>2016-01-03T10:11:05Z</time>
      </trkpt>
      <trkpt lat="49.13303" lon="7.31032">
        <ele>315.45</ele>
        <time>2016-01-03T10:11:23Z</time>
      </trkpt>
      <trkpt lat="49.1328" lon="7.3105">
        <ele>315.45</ele>
        <time>2016-01-03T10:11:45Z</time>
      </trkpt>
      <trkpt lat="49.13266" lon="7.31076">
        <ele>313.05</ele>
        <time>2016-01-03T10:12:02Z</time>
      </trkpt>
      <trkpt lat="49.1325" lon="7.31103">
        <ele>312.09</ele>
        <time>2016-01-03T10:12:21Z</time>
      </trkpt>
      <trkpt lat="49.13245" lon="7.31111">
        <ele>312.09</ele>
        <time>2016-01-03T10:12:28Z</time>
      </trkpt>
      <trkpt lat="49.13242" lon="7.31116">
        <ele>311.6</ele>
        <time>2016-01-03T10:12:33Z</time>
      </trkpt>
      <trkpt lat="49.13231" lon="7.31137">
        <ele>312.09</ele>
        <time>2016-01-03T10:12:48Z</time>
      </trkpt>
      <trkpt lat="49.13208" lon="7.31143">
        <ele>312.09</ele>
        <time>2016-01-03T10:13:06Z</time>
      </trkpt>
      <trkpt lat="49.13186" lon="7.31143">
        <ele>311.12</ele>
        <time>2016-01-03T10:13:24Z</time>
      </trkpt>
      <trkpt lat="49.13165" lon="7.3115">
        <ele>312.57</ele>
        <time>2016-01-03T10:13:43Z</time>
      </trkpt>
      <trkpt lat="49.1314" lon="7.31154">
        <ele>314.49</ele>
        <time>2016-01-03T10:14:04Z</time>
      </trkpt>
      <trkpt lat="49.13114" lon="7.31147">
        <ele>315.45</ele>
        <time>2016-01-03T10:14:25Z</time>
      </trkpt>
      <trkpt lat="49.13094" lon="7.31155">
        <ele>315.45</ele>
        <time>2016-01-03T10:14:43Z</time>
      </trkpt>
      <trkpt lat="49.13073" lon="7.31168">
        <ele>317.85</ele>
        <time>2016-01-03T10:15:03Z</time>
      </trkpt>
      <trkpt lat="49.13056" lon="7.31187">
        <ele>319.78</ele>
        <time>2016-01-03T10:15:22Z</time>
      </trkpt>
      <trkpt lat="49.13055" lon="7.31187">
        <ele>320.26</ele>
        <time>2016-01-03T10:15:23Z</time>
      </trkpt>
      <trkpt lat="49.1304" lon="7.31207">
        <ele>322.18</ele>
        <time>2016-01-03T10:15:41Z</time>
      </trkpt>
      <trkpt lat="49.13024" lon="7.31234">
        <ele>321.22</ele>
        <time>2016-01-03T10:16:00Z</time>
      </trkpt>
      <trkpt lat="49.1302" lon="7.31243">
        <ele>322.18</ele>
        <time>2016-01-03T10:16:06Z</time>
      </trkpt>
      <trkpt lat="49.13005" lon="7.31269">
        <ele>321.7</ele>
        <time>2016-01-03T10:16:25Z</time>
      </trkpt>
      <trkpt lat="49.12998" lon="7.3128">
        <ele>322.18</ele>
        <time>2016-01-03T10:16:33Z</time>
      </trkpt>
      <trkpt lat="49.12996" lon="7.31281">
        <ele>322.18</ele>
        <time>2016-01-03T10:16:37Z</time>
      </trkpt>
      <trkpt lat="49.12993" lon="7.31286">
        <ele>322.18</ele>
        <time>2016-01-03T10:16:41Z</time>
      </trkpt>
      <trkpt lat="49.12975" lon="7.31315">
        <ele>322.18</ele>
        <time>2016-01-03T10:17:01Z</time>
      </trkpt>
      <trkpt lat="49.12956" lon="7.31337">
        <ele>322.18</ele>
        <time>2016-01-03T10:17:21Z</time>
      </trkpt>
      <trkpt lat="49.12947" lon="7.31353">
        <ele>321.7</ele>
        <time>2016-01-03T10:17:39Z</time>
      </trkpt>
      <trkpt lat="49.12946" lon="7.31354">
        <ele>321.7</ele>
        <time>2016-01-03T10:17:55Z</time>
      </trkpt>
      <trkpt lat="49.12942" lon="7.31366">
        <ele>321.22</ele>
        <time>2016-01-03T10:18:09Z</time>
      </trkpt>
      <trkpt lat="49.12941" lon="7.31379">
        <ele>320.26</ele>
        <time>2016-01-03T10:18:23Z</time>
      </trkpt>
      <trkpt lat="49.12941" lon="7.31389">
        <ele>320.26</ele>
        <time>2016-01-03T10:18:30Z</time>
      </trkpt>
      <trkpt lat="49.12936" lon="7.31394">
        <ele>321.22</ele>
        <time>2016-01-03T10:18:45Z</time>
      </trkpt>
      <trkpt lat="49.12936" lon="7.31394">
        <ele>321.22</ele>
        <time>2016-01-03T10:19:11Z</time>
      </trkpt>
      <trkpt lat="49.12936" lon="7.31394">
        <ele>320.74</ele>
        <time>2016-01-03T10:19:41Z</time>
      </trkpt>
      <trkpt lat="49.12936" lon="7.31393">
        <ele>320.74</ele>
        <time>2016-01-03T10:20:12Z</time>
      </trkpt>
      <trkpt lat="49.12936" lon="7.31393">
        <ele>320.74</ele>
        <time>2016-01-03T10:20:33Z</time>
      </trkpt>
      <trkpt lat="49.12936" lon="7.31393">
        <ele>320.74</ele>
        <time>2016-01-03T10:20:57Z</time>
      </trkpt>
      <trkpt lat="49.12936" lon="7.31393">
        <ele>320.74</ele>
        <time>2016-01-03T10:21:21Z</time>
      </trkpt>
      <trkpt lat="49.12936" lon="7.31392">
        <ele>320.74</ele>
        <time>2016-01-03T10:21:44Z</time>
      </trkpt>
      <trkpt lat="49.12936" lon="7.31392">
        <ele>320.26</ele>
        <time>2016-01-03T10:22:15Z</time>
      </trkpt>
      <trkpt lat="49.12936" lon="7.31392">
        <ele>320.26</ele>
        <time>2016-01-03T10:22:51Z</time>
      </trkpt>
      <trkpt lat="49.12936" lon="7.31393">
        <ele>320.26</ele>
        <time>2016-01-03T10:23:23Z</time>
      </trkpt>
      <trkpt lat="49.12935" lon="7.31392">
        <ele>320.26</ele>
        <time>2016-01-03T10:23:58Z</time>
      </trkpt>
      <trkpt lat="49.12935" lon="7.31392">
        <ele>320.26</ele>
        <time>2016-01-03T10:24:37Z</time>
      </trkpt>
      <trkpt lat="49.12935" lon="7.31392">
        <ele>320.26</ele>
        <time>2016-01-03T10:25:10Z</time>
      </trkpt>
      <trkpt lat="49.12935" lon="7.31393">
        <ele>320.74</ele>
        <time>2016-01-03T10:25:44Z</time>
      </trkpt>
      <trkpt lat="49.12935" lon="7.31393">
        <ele>320.74</ele>
        <time>2016-01-03T10:26:19Z</time>
      </trkpt>
      <trkpt lat="49.12934" lon="7.31393">
        <ele>320.74</ele>
        <time>2016-01-03T10:26:55Z</time>
      </trkpt>
      <trkpt lat="49.12934" lon="7.31393">
        <ele>320.74</ele>
        <time>2016-01-03T10:27:27Z</time>
      </trkpt>
      <trkpt lat="49.12934" lon="7.31393">
        <ele>320.74</ele>
        <time>2016-01-03T10:28:08Z</time>
      </trkpt>
      <trkpt lat="49.12934" lon="7.31393">
        <ele>320.74</ele>
        <time>2016-01-03T10:28:49Z</time>
      </trkpt>
      <trkpt lat="49.12934" lon="7.31393">
        <ele>320.74</ele>
        <time>2016-01-03T10:29:27Z</time>
      </trkpt>
      <trkpt lat="49.12934" lon="7.31393">
        <ele>320.74</ele>
        <time>2016-01-03T10:30:05Z</time>
      </trkpt>
      <trkpt lat="49.12934" lon="7.31393">
        <ele>320.74</ele>
        <time>2016-01-03T10:30:41Z</time>
      </trkpt>
      <trkpt lat="49.12932" lon="7.31395">
        <ele>321.22</ele>
        <time>2016-01-03T10:31:07Z</time>
      </trkpt>
      <trkpt lat="49.12934" lon="7.31394">
        <ele>322.18</ele>
        <time>2016-01-03T10:31:22Z</time>
      </trkpt>
      <trkpt lat="49.12934" lon="7.31394">
        <ele>322.18</ele>
        <time>2016-01-03T10:31:42Z</time>
      </trkpt>
      <trkpt lat="49.12933" lon="7.31394">
        <ele>322.18</ele>
        <time>2016-01-03T10:32:11Z</time>
      </trkpt>
      <trkpt lat="49.12933" lon="7.31393">
        <ele>322.18</ele>
        <time>2016-01-03T10:32:51Z</time>
      </trkpt>
      <trkpt lat="49.12933" lon="7.31393">
        <ele>322.18</ele>
        <time>2016-01-03T10:33:20Z</time>
      </trkpt>
      <trkpt lat="49.12933" lon="7.31393">
        <ele>322.18</ele>
        <time>2016-01-03T10:33:57Z</time>
      </trkpt>
      <trkpt lat="49.12933" lon="7.31393">
        <ele>322.18</ele>
        <time>2016-01-03T10:34:29Z</time>
      </trkpt>
      <trkpt lat="49.12934" lon="7.31393">
        <ele>322.18</ele>
        <time>2016-01-03T10:35:08Z</time>
      </trkpt>
      <trkpt lat="49.12933" lon="7.31392">
        <ele>322.18</ele>
        <time>2016-01-03T10:35:37Z</time>
      </trkpt>
      <trkpt lat="49.12933" lon="7.31392">
        <ele>322.18</ele>
        <time>2016-01-03T10:35:58Z</time>
      </trkpt>
      <trkpt lat="49.12933" lon="7.31395">
        <ele>325.06</ele>
        <time>2016-01-03T10:36:13Z</time>
      </trkpt>
      <trkpt lat="49.12933" lon="7.31395">
        <ele>326.02</ele>
        <time>2016-01-03T10:36:28Z</time>
      </trkpt>
      <trkpt lat="49.12938" lon="7.31396">
        <ele>326.02</ele>
        <time>2016-01-03T10:36:41Z</time>
      </trkpt>
      <trkpt lat="49.1294" lon="7.31369">
        <ele>329.39</ele>
        <time>2016-01-03T10:37:00Z</time>
      </trkpt>
      <trkpt lat="49.12929" lon="7.3133">
        <ele>330.35</ele>
        <time>2016-01-03T10:37:20Z</time>
      </trkpt>
      <trkpt lat="49.12915" lon="7.31294">
        <ele>330.83</ele>
        <time>2016-01-03T10:37:41Z</time>
      </trkpt>
      <trkpt lat="49.12911" lon="7.31287">
        <ele>330.83</ele>
        <time>2016-01-03T10:37:46Z</time>
      </trkpt>
      <trkpt lat="49.12896" lon="7.3125">
        <ele>331.79</ele>
        <time>2016-01-03T10:38:08Z</time>
      </trkpt>
      <trkpt lat="49.12885" lon="7.31219">
        <ele>330.35</ele>
        <time>2016-01-03T10:38:26Z</time>
      </trkpt>
      <trkpt lat="49.1287" lon="7.31191">
        <ele>329.87</ele>
        <time>2016-01-03T10:38:45Z</time>
      </trkpt>
      <trkpt lat="49.12855" lon="7.31162">
        <ele>328.43</ele>
        <time>2016-01-03T10:39:03Z</time>
      </trkpt>
      <trkpt lat="49.12853" lon="7.31157">
        <ele>328.43</ele>
        <time>2016-01-03T10:39:06Z</time>
      </trkpt>
      <trkpt lat="49.12835" lon="7.31124">
        <ele>327.95</ele>
        <time>2016-01-03T10:39:27Z</time>
      </trkpt>
      <trkpt lat="49.12831" lon="7.31116">
        <ele>327.95</ele>
        <time>2016-01-03T10:39:32Z</time>
      </trkpt>
      <trkpt lat="49.12819" lon="7.31079">
        <ele>328.91</ele>
        <time>2016-01-03T10:39:53Z</time>
      </trkpt>
      <trkpt lat="49.12807" lon="7.31036">
        <ele>328.43</ele>
        <time>2016-01-03T10:40:17Z</time>
      </trkpt>
      <trkpt lat="49.12804" lon="7.31027">
        <ele>327.47</ele>
        <time>2016-01-03T10:40:22Z</time>
      </trkpt>
      <trkpt lat="49.12801" lon="7.31014">
        <ele>327.47</ele>
        <time>2016-01-03T10:40:30Z</time>
      </trkpt>
      <trkpt lat="49.12798" lon="7.31007">
        <ele>327.47</ele>
        <time>2016-01-03T10:40:34Z</time>
      </trkpt>
      <trkpt lat="49.12789" lon="7.30975">
        <ele>326.99</ele>
        <time>2016-01-03T10:40:54Z</time>
      </trkpt>
      <trkpt lat="49.12776" lon="7.30941">
        <ele>326.5</ele>
        <time>2016-01-03T10:41:14Z</time>
      </trkpt>
      <trkpt lat="49.12774" lon="7.30932">
        <ele>326.99</ele>
        <time>2016-01-03T10:41:19Z</time>
      </trkpt>
      <trkpt lat="49.12771" lon="7.30919">
        <ele>327.47</ele>
        <time>2016-01-03T10:41:26Z</time>
      </trkpt>
      <trkpt lat="49.12764" lon="7.30886">
        <ele>327.95</ele>
        <time>2016-01-03T10:41:45Z</time>
      </trkpt>
      <trkpt lat="49.12757" lon="7.30859">
        <ele>327.47</ele>
        <time>2016-01-03T10:41:59Z</time>
      </trkpt>
      <trkpt lat="49.12749" lon="7.30823">
        <ele>326.99</ele>
        <time>2016-01-03T10:42:19Z</time>
      </trkpt>
      <trkpt lat="49.12742" lon="7.30785">
        <ele>326.99</ele>
        <time>2016-01-03T10:42:39Z</time>
      </trkpt>
      <trkpt lat="49.12736" lon="7.30745">
        <ele>327.47</ele>
        <time>2016-01-03T10:43:01Z</time>
      </trkpt>
      <trkpt lat="49.12734" lon="7.30738">
        <ele>327.47</ele>
        <time>2016-01-03T10:43:06Z</time>
      </trkpt>
      <trkpt lat="49.12733" lon="7.30722">
        <ele>326.99</ele>
        <time>2016-01-03T10:43:18Z</time>
      </trkpt>
      <trkpt lat="49.12732" lon="7.30712">
        <ele>326.02</ele>
        <time>2016-01-03T10:43:24Z</time>
      </trkpt>
      <trkpt lat="49.12732" lon="7.30708">
        <ele>326.5</ele>
        <time>2016-01-03T10:43:26Z</time>
      </trkpt>
      <trkpt lat="49.12732" lon="7.307">
        <ele>326.99</ele>
        <time>2016-01-03T10:43:31Z</time>
      </trkpt>
      <trkpt lat="49.1273" lon="7.30667">
        <ele>326.5</ele>
        <time>2016-01-03T10:43:50Z</time>
      </trkpt>
      <trkpt lat="49.12728" lon="7.30634">
        <ele>325.06</ele>
        <time>2016-01-03T10:44:09Z</time>
      </trkpt>
      <trkpt lat="49.12723" lon="7.30607">
        <ele>325.06</ele>
        <time>2016-01-03T10:44:26Z</time>
      </trkpt>
      <trkpt lat="49.12713" lon="7.30588">
        <ele>324.58</ele>
        <time>2016-01-03T10:44:42Z</time>
      </trkpt>
      <trkpt lat="49.127" lon="7.30575">
        <ele>324.1</ele>
        <time>2016-01-03T10:44:58Z</time>
      </trkpt>
      <trkpt lat="49.12696" lon="7.3057">
        <ele>323.14</ele>
        <time>2016-01-03T10:45:05Z</time>
      </trkpt>
      <trkpt lat="49.12683" lon="7.3056">
        <ele>322.66</ele>
        <time>2016-01-03T10:45:17Z</time>
      </trkpt>
      <trkpt lat="49.12661" lon="7.30543">
        <ele>321.7</ele>
        <time>2016-01-03T10:45:39Z</time>
      </trkpt>
      <trkpt lat="49.12638" lon="7.30526">
        <ele>321.22</ele>
        <time>2016-01-03T10:46:00Z</time>
      </trkpt>
      <trkpt lat="49.12615" lon="7.30511">
        <ele>320.74</ele>
        <time>2016-01-03T10:46:22Z</time>
      </trkpt>
      <trkpt lat="49.12591" lon="7.30497">
        <ele>319.3</ele>
        <time>2016-01-03T10:46:44Z</time>
      </trkpt>
      <trkpt lat="49.12565" lon="7.30486">
        <ele>319.3</ele>
        <time>2016-01-03T10:47:06Z</time>
      </trkpt>
      <trkpt lat="49.12545" lon="7.3048">
        <ele>318.81</ele>
        <time>2016-01-03T10:47:24Z</time>
      </trkpt>
      <trkpt lat="49.12524" lon="7.30473">
        <ele>319.3</ele>
        <time>2016-01-03T10:47:42Z</time>
      </trkpt>
      <trkpt lat="49.12499" lon="7.30463">
        <ele>318.81</ele>
        <time>2016-01-03T10:48:03Z</time>
      </trkpt>
      <trkpt lat="49.12481" lon="7.30447">
        <ele>318.33</ele>
        <time>2016-01-03T10:48:22Z</time>
      </trkpt>
      <trkpt lat="49.12467" lon="7.30427">
        <ele>318.81</ele>
        <time>2016-01-03T10:48:39Z</time>
      </trkpt>
      <trkpt lat="49.12458" lon="7.30409">
        <ele>319.3</ele>
        <time>2016-01-03T10:48:54Z</time>
      </trkpt>
      <trkpt lat="49.1245" lon="7.30394">
        <ele>320.26</ele>
        <time>2016-01-03T10:49:10Z</time>
      </trkpt>
      <trkpt lat="49.12446" lon="7.30377">
        <ele>319.78</ele>
        <time>2016-01-03T10:49:22Z</time>
      </trkpt>
      <trkpt lat="49.12442" lon="7.30358">
        <ele>320.26</ele>
        <time>2016-01-03T10:49:35Z</time>
      </trkpt>
      <trkpt lat="49.12442" lon="7.30349">
        <ele>319.78</ele>
        <time>2016-01-03T10:49:40Z</time>
      </trkpt>
      <trkpt lat="49.12452" lon="7.30316">
        <ele>316.41</ele>
        <time>2016-01-03T10:50:01Z</time>
      </trkpt>
      <trkpt lat="49.12463" lon="7.30284">
        <ele>312.57</ele>
        <time>2016-01-03T10:50:22Z</time>
      </trkpt>
      <trkpt lat="49.12477" lon="7.30252">
        <ele>309.2</ele>
        <time>2016-01-03T10:50:45Z</time>
      </trkpt>
      <trkpt lat="49.1248" lon="7.30241">
        <ele>307.28</ele>
        <time>2016-01-03T10:51:06Z</time>
      </trkpt>
      <trkpt lat="49.12483" lon="7.30233">
        <ele>307.28</ele>
        <time>2016-01-03T10:51:21Z</time>
      </trkpt>
      <trkpt lat="49.12497" lon="7.30195">
        <ele>304.39</ele>
        <time>2016-01-03T10:51:45Z</time>
      </trkpt>
      <trkpt lat="49.12501" lon="7.30183">
        <ele>302.95</ele>
        <time>2016-01-03T10:51:53Z</time>
      </trkpt>
      <trkpt lat="49.12512" lon="7.30148">
        <ele>297.67</ele>
        <time>2016-01-03T10:52:17Z</time>
      </trkpt>
      <trkpt lat="49.12522" lon="7.30117">
        <ele>293.82</ele>
        <time>2016-01-03T10:52:40Z</time>
      </trkpt>
      <trkpt lat="49.12531" lon="7.30087">
        <ele>292.38</ele>
        <time>2016-01-03T10:53:01Z</time>
      </trkpt>
      <trkpt lat="49.12533" lon="7.30082">
        <ele>292.38</ele>
        <time>2016-01-03T10:53:05Z</time>
      </trkpt>
      <trkpt lat="49.12541" lon="7.30078">
        <ele>293.34</ele>
        <time>2016-01-03T10:53:20Z</time>
      </trkpt>
      <trkpt lat="49.12546" lon="7.30075">
        <ele>293.34</ele>
        <time>2016-01-03T10:53:43Z</time>
      </trkpt>
      <trkpt lat="49.12551" lon="7.30077">
        <ele>293.34</ele>
        <time>2016-01-03T10:54:15Z</time>
      </trkpt>
      <trkpt lat="49.1255" lon="7.30079">
        <ele>293.34</ele>
        <time>2016-01-03T10:54:41Z</time>
      </trkpt>
      <trkpt lat="49.1255" lon="7.3008">
        <ele>293.34</ele>
        <time>2016-01-03T10:55:08Z</time>
      </trkpt>
      <trkpt lat="49.12544" lon="7.30077">
        <ele>289.97</ele>
        <time>2016-01-03T10:55:24Z</time>
      </trkpt>
      <trkpt lat="49.12542" lon="7.3008">
        <ele>290.46</ele>
        <time>2016-01-03T10:55:42Z</time>
      </trkpt>
      <trkpt lat="49.12542" lon="7.3008">
        <ele>290.46</ele>
        <time>2016-01-03T10:56:12Z</time>
      </trkpt>
      <trkpt lat="49.12541" lon="7.30079">
        <ele>290.46</ele>
        <time>2016-01-03T10:56:40Z</time>
      </trkpt>
      <trkpt lat="49.12541" lon="7.30079">
        <ele>290.94</ele>
        <time>2016-01-03T10:57:20Z</time>
      </trkpt>
      <trkpt lat="49.12538" lon="7.3008">
        <ele>293.34</ele>
        <time>2016-01-03T10:57:32Z</time>
      </trkpt>
      <trkpt lat="49.12538" lon="7.3008">
        <ele>293.34</ele>
        <time>2016-01-03T10:57:51Z</time>
      </trkpt>
      <trkpt lat="49.12538" lon="7.3008">
        <ele>293.34</ele>
        <time>2016-01-03T10:57:56Z</time>
      </trkpt>
      <trkpt lat="49.12521" lon="7.3007">
        <ele>294.78</ele>
        <time>2016-01-03T10:58:12Z</time>
      </trkpt>
      <trkpt lat="49.12512" lon="7.30063">
        <ele>291.42</ele>
        <time>2016-01-03T10:58:30Z</time>
      </trkpt>
      <trkpt lat="49.12509" lon="7.30062">
        <ele>290.46</ele>
        <time>2016-01-03T10:58:49Z</time>
      </trkpt>
      <trkpt lat="49.12509" lon="7.30062">
        <ele>290.46</ele>
        <time>2016-01-03T10:58:55Z</time>
      </trkpt>
      <trkpt lat="49.12493" lon="7.30045">
        <ele>294.78</ele>
        <time>2016-01-03T10:59:11Z</time>
      </trkpt>
      <trkpt lat="49.12472" lon="7.30023">
        <ele>300.07</ele>
        <time>2016-01-03T10:59:32Z</time>
      </trkpt>
      <trkpt lat="49.12443" lon="7.29998">
        <ele>296.22</ele>
        <time>2016-01-03T10:59:54Z</time>
      </trkpt>
      <trkpt lat="49.12421" lon="7.29974">
        <ele>296.7</ele>
        <time>2016-01-03T11:00:15Z</time>
      </trkpt>
      <trkpt lat="49.12394" lon="7.2995">
        <ele>294.3</ele>
        <time>2016-01-03T11:00:36Z</time>
      </trkpt>
      <trkpt lat="49.12368" lon="7.29925">
        <ele>291.9</ele>
        <time>2016-01-03T11:01:00Z</time>
      </trkpt>
      <trkpt lat="49.12342" lon="7.29897">
        <ele>291.9</ele>
        <time>2016-01-03T11:01:24Z</time>
      </trkpt>
      <trkpt lat="49.12321" lon="7.29876">
        <ele>293.34</ele>
        <time>2016-01-03T11:01:44Z</time>
      </trkpt>
      <trkpt lat="49.12301" lon="7.29847">
        <ele>297.18</ele>
        <time>2016-01-03T11:02:07Z</time>
      </trkpt>
      <trkpt lat="49.12286" lon="7.2982">
        <ele>297.18</ele>
        <time>2016-01-03T11:02:22Z</time>
      </trkpt>
      <trkpt lat="49.1227" lon="7.2978">
        <ele>295.74</ele>
        <time>2016-01-03T11:02:45Z</time>
      </trkpt>
      <trkpt lat="49.12254" lon="7.29741">
        <ele>295.74</ele>
        <time>2016-01-03T11:03:09Z</time>
      </trkpt>
      <trkpt lat="49.1224" lon="7.29706">
        <ele>295.26</ele>
        <time>2016-01-03T11:03:31Z</time>
      </trkpt>
      <trkpt lat="49.12224" lon="7.29665">
        <ele>293.82</ele>
        <time>2016-01-03T11:03:56Z</time>
      </trkpt>
      <trkpt lat="49.12209" lon="7.2963">
        <ele>292.86</ele>
        <time>2016-01-03T11:04:19Z</time>
      </trkpt>
      <trkpt lat="49.12192" lon="7.29594">
        <ele>290.46</ele>
        <time>2016-01-03T11:04:41Z</time>
      </trkpt>
      <trkpt lat="49.12176" lon="7.29559">
        <ele>290.46</ele>
        <time>2016-01-03T11:05:04Z</time>
      </trkpt>
      <trkpt lat="49.12149" lon="7.29524">
        <ele>289.97</ele>
        <time>2016-01-03T11:05:31Z</time>
      </trkpt>
      <trkpt lat="49.12126" lon="7.295">
        <ele>290.46</ele>
        <time>2016-01-03T11:05:53Z</time>
      </trkpt>
      <trkpt lat="49.12116" lon="7.2949">
        <ele>289.97</ele>
        <time>2016-01-03T11:06:05Z</time>
      </trkpt>
      <trkpt lat="49.1211" lon="7.29483">
        <ele>289.97</ele>
        <time>2016-01-03T11:06:11Z</time>
      </trkpt>
      <trkpt lat="49.12105" lon="7.29479">
        <ele>289.97</ele>
        <time>2016-01-03T11:06:15Z</time>
      </trkpt>
      <trkpt lat="49.12083" lon="7.29451">
        <ele>289.01</ele>
        <time>2016-01-03T11:06:38Z</time>
      </trkpt>
      <trkpt lat="49.1206" lon="7.29419">
        <ele>285.65</ele>
        <time>2016-01-03T11:07:02Z</time>
      </trkpt>
      <trkpt lat="49.12044" lon="7.29389">
        <ele>288.05</ele>
        <time>2016-01-03T11:07:24Z</time>
      </trkpt>
      <trkpt lat="49.12026" lon="7.29352">
        <ele>291.9</ele>
        <time>2016-01-03T11:07:49Z</time>
      </trkpt>
      <trkpt lat="49.12007" lon="7.29315">
        <ele>288.05</ele>
        <time>2016-01-03T11:08:12Z</time>
      </trkpt>
      <trkpt lat="49.11988" lon="7.29285">
        <ele>285.17</ele>
        <time>2016-01-03T11:08:34Z</time>
      </trkpt>
      <trkpt lat="49.11965" lon="7.29257">
        <ele>284.21</ele>
        <time>2016-01-03T11:08:57Z</time>
      </trkpt>
      <trkpt lat="49.11941" lon="7.29241">
        <ele>286.61</ele>
        <time>2016-01-03T11:09:19Z</time>
      </trkpt>
      <trkpt lat="49.11917" lon="7.29232">
        <ele>286.13</ele>
        <time>2016-01-03T11:09:41Z</time>
      </trkpt>
      <trkpt lat="49.11888" lon="7.29214">
        <ele>286.13</ele>
        <time>2016-01-03T11:10:05Z</time>
      </trkpt>
      <trkpt lat="49.11861" lon="7.29196">
        <ele>283.25</ele>
        <time>2016-01-03T11:10:27Z</time>
      </trkpt>
      <trkpt lat="49.11835" lon="7.29177">
        <ele>279.88</ele>
        <time>2016-01-03T11:10:49Z</time>
      </trkpt>
      <trkpt lat="49.11808" lon="7.29159">
        <ele>277.96</ele>
        <time>2016-01-03T11:11:12Z</time>
      </trkpt>
      <trkpt lat="49.11778" lon="7.29146">
        <ele>276.04</ele>
        <time>2016-01-03T11:11:37Z</time>
      </trkpt>
      <trkpt lat="49.11747" lon="7.29132">
        <ele>275.07</ele>
        <time>2016-01-03T11:12:03Z</time>
      </trkpt>
      <trkpt lat="49.1172" lon="7.29121">
        <ele>275.07</ele>
        <time>2016-01-03T11:12:26Z</time>
      </trkpt>
      <trkpt lat="49.11691" lon="7.29116">
        <ele>274.59</ele>
        <time>2016-01-03T11:12:50Z</time>
      </trkpt>
      <trkpt lat="49.1166" lon="7.29111">
        <ele>272.67</ele>
        <time>2016-01-03T11:13:15Z</time>
      </trkpt>
      <trkpt lat="49.11629" lon="7.29105">
        <ele>271.23</ele>
        <time>2016-01-03T11:13:40Z</time>
      </trkpt>
      <trkpt lat="49.11608" lon="7.29085">
        <ele>271.71</ele>
        <time>2016-01-03T11:14:03Z</time>
      </trkpt>
      <trkpt lat="49.11617" lon="7.29046">
        <ele>272.67</ele>
        <time>2016-01-03T11:14:25Z</time>
      </trkpt>
      <trkpt lat="49.11626" lon="7.29008">
        <ele>272.67</ele>
        <time>2016-01-03T11:14:47Z</time>
      </trkpt>
      <trkpt lat="49.11636" lon="7.28965">
        <ele>271.71</ele>
        <time>2016-01-03T11:15:12Z</time>
      </trkpt>
      <trkpt lat="49.11639" lon="7.28939">
        <ele>271.23</ele>
        <time>2016-01-03T11:15:33Z</time>
      </trkpt>
      <trkpt lat="49.11639" lon="7.28939">
        <ele>270.75</ele>
        <time>2016-01-03T11:15:47Z</time>
      </trkpt>
      <trkpt lat="49.11639" lon="7.28939">
        <ele>270.75</ele>
        <time>2016-01-03T11:16:03Z</time>
      </trkpt>
      <trkpt lat="49.11647" lon="7.28907">
        <ele>272.19</ele>
        <time>2016-01-03T11:16:22Z</time>
      </trkpt>
      <trkpt lat="49.11654" lon="7.28885">
        <ele>271.23</ele>
        <time>2016-01-03T11:16:39Z</time>
      </trkpt>
      <trkpt lat="49.11668" lon="7.28855">
        <ele>269.31</ele>
        <time>2016-01-03T11:17:00Z</time>
      </trkpt>
      <trkpt lat="49.11669" lon="7.28853">
        <ele>269.31</ele>
        <time>2016-01-03T11:17:02Z</time>
      </trkpt>
      <trkpt lat="49.11681" lon="7.28826">
        <ele>268.83</ele>
        <time>2016-01-03T11:17:22Z</time>
      </trkpt>
      <trkpt lat="49.11697" lon="7.28796">
        <ele>268.35</ele>
        <time>2016-01-03T11:17:43Z</time>
      </trkpt>
      <trkpt lat="49.11714" lon="7.2876">
        <ele>268.83</ele>
        <time>2016-01-03T11:18:07Z</time>
      </trkpt>
      <trkpt lat="49.1173" lon="7.28725">
        <ele>269.31</ele>
        <time>2016-01-03T11:18:31Z</time>
      </trkpt>
      <trkpt lat="49.11733" lon="7.2871">
        <ele>268.35</ele>
        <time>2016-01-03T11:18:40Z</time>
      </trkpt>
      <trkpt lat="49.11723" lon="7.28687">
        <ele>268.35</ele>
        <time>2016-01-03T11:18:58Z</time>
      </trkpt>
      <trkpt lat="49.11708" lon="7.28652">
        <ele>267.38</ele>
        <time>2016-01-03T11:19:21Z</time>
      </trkpt>
      <trkpt lat="49.11689" lon="7.28629">
        <ele>266.42</ele>
        <time>2016-01-03T11:19:42Z</time>
      </trkpt>
      <trkpt lat="49.11667" lon="7.28616">
        <ele>264.02</ele>
        <time>2016-01-03T11:20:01Z</time>
      </trkpt>
      <trkpt lat="49.1164" lon="7.28597">
        <ele>259.69</ele>
        <time>2016-01-03T11:20:26Z</time>
      </trkpt>
      <trkpt lat="49.11617" lon="7.28574">
        <ele>257.77</ele>
        <time>2016-01-03T11:20:51Z</time>
      </trkpt>
      <trkpt lat="49.11604" lon="7.28556">
        <ele>256.81</ele>
        <time>2016-01-03T11:21:07Z</time>
      </trkpt>
      <trkpt lat="49.11586" lon="7.2853">
        <ele>254.89</ele>
        <time>2016-01-03T11:21:27Z</time>
      </trkpt>
      <trkpt lat="49.11562" lon="7.28496">
        <ele>247.68</ele>
        <time>2016-01-03T11:21:51Z</time>
      </trkpt>
      <trkpt lat="49.11548" lon="7.28454">
        <ele>244.31</ele>
        <time>2016-01-03T11:22:16Z</time>
      </trkpt>
      <trkpt lat="49.11539" lon="7.2841">
        <ele>242.39</ele>
        <time>2016-01-03T11:22:40Z</time>
      </trkpt>
      <trkpt lat="49.11538" lon="7.28368">
        <ele>241.43</ele>
        <time>2016-01-03T11:23:03Z</time>
      </trkpt>
      <trkpt lat="49.11533" lon="7.28324">
        <ele>242.39</ele>
        <time>2016-01-03T11:23:25Z</time>
      </trkpt>
      <trkpt lat="49.11525" lon="7.28283">
        <ele>242.39</ele>
        <time>2016-01-03T11:23:47Z</time>
      </trkpt>
      <trkpt lat="49.11514" lon="7.28247">
        <ele>242.39</ele>
        <time>2016-01-03T11:24:08Z</time>
      </trkpt>
      <trkpt lat="49.11491" lon="7.28214">
        <ele>243.35</ele>
        <time>2016-01-03T11:24:32Z</time>
      </trkpt>
      <trkpt lat="49.1146" lon="7.28187">
        <ele>241.43</ele>
        <time>2016-01-03T11:24:59Z</time>
      </trkpt>
      <trkpt lat="49.11426" lon="7.28165">
        <ele>239.99</ele>
        <time>2016-01-03T11:25:26Z</time>
      </trkpt>
      <trkpt lat="49.11397" lon="7.28148">
        <ele>238.54</ele>
        <time>2016-01-03T11:25:50Z</time>
      </trkpt>
      <trkpt lat="49.11362" lon="7.28128">
        <ele>236.14</ele>
        <time>2016-01-03T11:26:18Z</time>
      </trkpt>
      <trkpt lat="49.11329" lon="7.28108">
        <ele>236.14</ele>
        <time>2016-01-03T11:26:46Z</time>
      </trkpt>
      <trkpt lat="49.11302" lon="7.28094">
        <ele>237.1</ele>
        <time>2016-01-03T11:27:09Z</time>
      </trkpt>
      <trkpt lat="49.11272" lon="7.28085">
        <ele>237.58</ele>
        <time>2016-01-03T11:27:33Z</time>
      </trkpt>
      <trkpt lat="49.11241" lon="7.28081">
        <ele>236.62</ele>
        <time>2016-01-03T11:27:57Z</time>
      </trkpt>
      <trkpt lat="49.11207" lon="7.28064">
        <ele>233.74</ele>
        <time>2016-01-03T11:28:24Z</time>
      </trkpt>
      <trkpt lat="49.1118" lon="7.28045">
        <ele>235.66</ele>
        <time>2016-01-03T11:28:49Z</time>
      </trkpt>
      <trkpt lat="49.1116" lon="7.28021">
        <ele>238.06</ele>
        <time>2016-01-03T11:29:10Z</time>
      </trkpt>
      <trkpt lat="49.11144" lon="7.27992">
        <ele>240.95</ele>
        <time>2016-01-03T11:29:30Z</time>
      </trkpt>
      <trkpt lat="49.11121" lon="7.27958">
        <ele>245.75</ele>
        <time>2016-01-03T11:29:56Z</time>
      </trkpt>
      <trkpt lat="49.11102" lon="7.27931">
        <ele>244.79</ele>
        <time>2016-01-03T11:30:17Z</time>
      </trkpt>
      <trkpt lat="49.11075" lon="7.27903">
        <ele>242.87</ele>
        <time>2016-01-03T11:30:41Z</time>
      </trkpt>
      <trkpt lat="49.1105" lon="7.27877">
        <ele>240.47</ele>
        <time>2016-01-03T11:31:04Z</time>
      </trkpt>
      <trkpt lat="49.11027" lon="7.2785">
        <ele>238.06</ele>
        <time>2016-01-03T11:31:26Z</time>
      </trkpt>
      <trkpt lat="49.11004" lon="7.27824">
        <ele>238.06</ele>
        <time>2016-01-03T11:31:50Z</time>
      </trkpt>
      <trkpt lat="49.10999" lon="7.27818">
        <ele>238.06</ele>
        <time>2016-01-03T11:31:55Z</time>
      </trkpt>
      <trkpt lat="49.10982" lon="7.27792">
        <ele>241.91</ele>
        <time>2016-01-03T11:32:16Z</time>
      </trkpt>
      <trkpt lat="49.10962" lon="7.27765">
        <ele>241.91</ele>
        <time>2016-01-03T11:32:37Z</time>
      </trkpt>
      <trkpt lat="49.10944" lon="7.27745">
        <ele>241.91</ele>
        <time>2016-01-03T11:32:55Z</time>
      </trkpt>
      <trkpt lat="49.10932" lon="7.27735">
        <ele>242.39</ele>
        <time>2016-01-03T11:33:06Z</time>
      </trkpt>
      <trkpt lat="49.1091" lon="7.2772">
        <ele>245.75</ele>
        <time>2016-01-03T11:33:27Z</time>
      </trkpt>
      <trkpt lat="49.10887" lon="7.27707">
        <ele>250.08</ele>
        <time>2016-01-03T11:33:49Z</time>
      </trkpt>
      <trkpt lat="49.10868" lon="7.27694">
        <ele>255.85</ele>
        <time>2016-01-03T11:34:09Z</time>
      </trkpt>
      <trkpt lat="49.10847" lon="7.27682">
        <ele>264.02</ele>
        <time>2016-01-03T11:34:28Z</time>
      </trkpt>
      <trkpt lat="49.10817" lon="7.27671">
        <ele>262.1</ele>
        <time>2016-01-03T11:34:51Z</time>
      </trkpt>
      <trkpt lat="49.10788" lon="7.27659">
        <ele>256.81</ele>
        <time>2016-01-03T11:35:12Z</time>
      </trkpt>
      <trkpt lat="49.10769" lon="7.27672">
        <ele>247.2</ele>
        <time>2016-01-03T11:35:30Z</time>
      </trkpt>
      <trkpt lat="49.10768" lon="7.27672">
        <ele>246.72</ele>
        <time>2016-01-03T11:36:10Z</time>
      </trkpt>
      <trkpt lat="49.10768" lon="7.27648">
        <ele>241.91</ele>
        <time>2016-01-03T11:36:28Z</time>
      </trkpt>
      <trkpt lat="49.10765" lon="7.27633">
        <ele>238.06</ele>
        <time>2016-01-03T11:36:44Z</time>
      </trkpt>
      <trkpt lat="49.10758" lon="7.27627">
        <ele>238.06</ele>
        <time>2016-01-03T11:37:02Z</time>
      </trkpt>
      <trkpt lat="49.10758" lon="7.27627">
        <ele>238.06</ele>
        <time>2016-01-03T11:37:28Z</time>
      </trkpt>
      <trkpt lat="49.10757" lon="7.27626">
        <ele>238.06</ele>
        <time>2016-01-03T11:38:05Z</time>
      </trkpt>
      <trkpt lat="49.10757" lon="7.27626">
        <ele>237.58</ele>
        <time>2016-01-03T11:38:41Z</time>
      </trkpt>
      <trkpt lat="49.10757" lon="7.27626">
        <ele>237.58</ele>
        <time>2016-01-03T11:39:20Z</time>
      </trkpt>
      <trkpt lat="49.10757" lon="7.27625">
        <ele>237.58</ele>
        <time>2016-01-03T11:39:54Z</time>
      </trkpt>
      <trkpt lat="49.10756" lon="7.27625">
        <ele>237.58</ele>
        <time>2016-01-03T11:40:30Z</time>
      </trkpt>
      <trkpt lat="49.10756" lon="7.27625">
        <ele>237.1</ele>
        <time>2016-01-03T11:41:04Z</time>
      </trkpt>
      <trkpt lat="49.10756" lon="7.27625">
        <ele>236.62</ele>
        <time>2016-01-03T11:41:39Z</time>
      </trkpt>
      <trkpt lat="49.10756" lon="7.27625">
        <ele>236.62</ele>
        <time>2016-01-03T11:42:14Z</time>
      </trkpt>
      <trkpt lat="49.10756" lon="7.27625">
        <ele>236.62</ele>
        <time>2016-01-03T11:42:39Z</time>
      </trkpt>
      <trkpt lat="49.10757" lon="7.27624">
        <ele>236.14</ele>
        <time>2016-01-03T11:42:48Z</time>
      </trkpt>
      <trkpt lat="49.10762" lon="7.27623">
        <ele>235.66</ele>
        <time>2016-01-03T11:42:52Z</time>
      </trkpt>
      <trkpt lat="49.1076" lon="7.27615">
        <ele>234.7</ele>
        <time>2016-01-03T11:42:57Z</time>
      </trkpt>
      <trkpt lat="49.10759" lon="7.27606">
        <ele>233.74</ele>
        <time>2016-01-03T11:43:02Z</time>
      </trkpt>
      <trkpt lat="49.10754" lon="7.27569">
        <ele>232.3</ele>
        <time>2016-01-03T11:43:24Z</time>
      </trkpt>
      <trkpt lat="49.10758" lon="7.2754">
        <ele>232.78</ele>
        <time>2016-01-03T11:43:41Z</time>
      </trkpt>
      <trkpt lat="49.10769" lon="7.27529">
        <ele>232.78</ele>
        <time>2016-01-03T11:43:56Z</time>
      </trkpt>
      <trkpt lat="49.1079" lon="7.27508">
        <ele>233.26</ele>
        <time>2016-01-03T11:44:15Z</time>
      </trkpt>
      <trkpt lat="49.10793" lon="7.27506">
        <ele>233.26</ele>
        <time>2016-01-03T11:44:18Z</time>
      </trkpt>
      <trkpt lat="49.10806" lon="7.27502">
        <ele>233.74</ele>
        <time>2016-01-03T11:44:35Z</time>
      </trkpt>
      <trkpt lat="49.10824" lon="7.27503">
        <ele>236.14</ele>
        <time>2016-01-03T11:44:51Z</time>
      </trkpt>
      <trkpt lat="49.10831" lon="7.27501">
        <ele>236.14</ele>
        <time>2016-01-03T11:44:58Z</time>
      </trkpt>
      <trkpt lat="49.10855" lon="7.27485">
        <ele>237.58</ele>
        <time>2016-01-03T11:45:19Z</time>
      </trkpt>
      <trkpt lat="49.10878" lon="7.27477">
        <ele>238.54</ele>
        <time>2016-01-03T11:45:38Z</time>
      </trkpt>
      <trkpt lat="49.10896" lon="7.27472">
        <ele>241.43</ele>
        <time>2016-01-03T11:45:55Z</time>
      </trkpt>
      <trkpt lat="49.10912" lon="7.27462">
        <ele>246.72</ele>
        <time>2016-01-03T11:46:13Z</time>
      </trkpt>
      <trkpt lat="49.10926" lon="7.27449">
        <ele>252.48</ele>
        <time>2016-01-03T11:46:30Z</time>
      </trkpt>
      <trkpt lat="49.10945" lon="7.27423">
        <ele>253.44</ele>
        <time>2016-01-03T11:46:48Z</time>
      </trkpt>
      <trkpt lat="49.10953" lon="7.27411">
        <ele>251.04</ele>
        <time>2016-01-03T11:46:56Z</time>
      </trkpt>
      <trkpt lat="49.10967" lon="7.27378">
        <ele>250.08</ele>
        <time>2016-01-03T11:47:16Z</time>
      </trkpt>
      <trkpt lat="49.10984" lon="7.27351">
        <ele>249.12</ele>
        <time>2016-01-03T11:47:37Z</time>
      </trkpt>
      <trkpt lat="49.10998" lon="7.27331">
        <ele>247.68</ele>
        <time>2016-01-03T11:47:52Z</time>
      </trkpt>
      <trkpt lat="49.11002" lon="7.27325">
        <ele>247.2</ele>
        <time>2016-01-03T11:47:57Z</time>
      </trkpt>
      <trkpt lat="49.11004" lon="7.27322">
        <ele>246.72</ele>
        <time>2016-01-03T11:48:00Z</time>
      </trkpt>
      <trkpt lat="49.11007" lon="7.27316">
        <ele>247.2</ele>
        <time>2016-01-03T11:48:05Z</time>
      </trkpt>
      <trkpt lat="49.11019" lon="7.27293">
        <ele>247.68</ele>
        <time>2016-01-03T11:48:23Z</time>
      </trkpt>
      <trkpt lat="49.11024" lon="7.27282">
        <ele>247.68</ele>
        <time>2016-01-03T11:48:30Z</time>
      </trkpt>
      <trkpt lat="49.11041" lon="7.27247">
        <ele>247.68</ele>
        <time>2016-01-03T11:48:52Z</time>
      </trkpt>
      <trkpt lat="49.11058" lon="7.27213">
        <ele>246.72</ele>
        <time>2016-01-03T11:49:13Z</time>
      </trkpt>
      <trkpt lat="49.11062" lon="7.27205">
        <ele>246.23</ele>
        <time>2016-01-03T11:49:18Z</time>
      </trkpt>
      <trkpt lat="49.11082" lon="7.27167">
        <ele>244.79</ele>
        <time>2016-01-03T11:49:43Z</time>
      </trkpt>
      <trkpt lat="49.11101" lon="7.27125">
        <ele>243.35</ele>
        <time>2016-01-03T11:50:08Z</time>
      </trkpt>
      <trkpt lat="49.11111" lon="7.27082">
        <ele>242.39</ele>
        <time>2016-01-03T11:50:31Z</time>
      </trkpt>
      <trkpt lat="49.11114" lon="7.27066">
        <ele>241.43</ele>
        <time>2016-01-03T11:50:47Z</time>
      </trkpt>
      <trkpt lat="49.11114" lon="7.27036">
        <ele>240.47</ele>
        <time>2016-01-03T11:51:03Z</time>
      </trkpt>
      <trkpt lat="49.11106" lon="7.26987">
        <ele>237.58</ele>
        <time>2016-01-03T11:51:28Z</time>
      </trkpt>
      <trkpt lat="49.11102" lon="7.26934">
        <ele>237.58</ele>
        <time>2016-01-03T11:51:54Z</time>
      </trkpt>
      <trkpt lat="49.11104" lon="7.26882">
        <ele>239.99</ele>
        <time>2016-01-03T11:52:20Z</time>
      </trkpt>
      <trkpt lat="49.11108" lon="7.26834">
        <ele>239.51</ele>
        <time>2016-01-03T11:52:45Z</time>
      </trkpt>
      <trkpt lat="49.1111" lon="7.26787">
        <ele>241.43</ele>
        <time>2016-01-03T11:53:09Z</time>
      </trkpt>
      <trkpt lat="49.11113" lon="7.26735">
        <ele>241.91</ele>
        <time>2016-01-03T11:53:35Z</time>
      </trkpt>
      <trkpt lat="49.11117" lon="7.26685">
        <ele>242.87</ele>
        <time>2016-01-03T11:54:01Z</time>
      </trkpt>
      <trkpt lat="49.1112" lon="7.26659">
        <ele>241.91</ele>
        <time>2016-01-03T11:54:16Z</time>
      </trkpt>
      <trkpt lat="49.1112" lon="7.26624">
        <ele>242.39</ele>
        <time>2016-01-03T11:54:36Z</time>
      </trkpt>
      <trkpt lat="49.11124" lon="7.26587">
        <ele>244.31</ele>
        <time>2016-01-03T11:54:55Z</time>
      </trkpt>
      <trkpt lat="49.11127" lon="7.26563">
        <ele>244.79</ele>
        <time>2016-01-03T11:55:07Z</time>
      </trkpt>
      <trkpt lat="49.11127" lon="7.2653">
        <ele>243.83</ele>
        <time>2016-01-03T11:55:25Z</time>
      </trkpt>
      <trkpt lat="49.11122" lon="7.26496">
        <ele>243.83</ele>
        <time>2016-01-03T11:55:44Z</time>
      </trkpt>
      <trkpt lat="49.11116" lon="7.26457">
        <ele>246.72</ele>
        <time>2016-01-03T11:56:07Z</time>
      </trkpt>
      <trkpt lat="49.11115" lon="7.26454">
        <ele>246.72</ele>
        <time>2016-01-03T11:56:09Z</time>
      </trkpt>
      <trkpt lat="49.11112" lon="7.26413">
        <ele>245.75</ele>
        <time>2016-01-03T11:56:30Z</time>
      </trkpt>
      <trkpt lat="49.11113" lon="7.26371">
        <ele>246.72</ele>
        <time>2016-01-03T11:56:52Z</time>
      </trkpt>
      <trkpt lat="49.11117" lon="7.26329">
        <ele>247.68</ele>
        <time>2016-01-03T11:57:16Z</time>
      </trkpt>
      <trkpt lat="49.11122" lon="7.26287">
        <ele>247.2</ele>
        <time>2016-01-03T11:57:38Z</time>
      </trkpt>
      <trkpt lat="49.11125" lon="7.26276">
        <ele>248.16</ele>
        <time>2016-01-03T11:57:46Z</time>
      </trkpt>
      <trkpt lat="49.11135" lon="7.26237">
        <ele>250.08</ele>
        <time>2016-01-03T11:58:08Z</time>
      </trkpt>
      <trkpt lat="49.11139" lon="7.26214">
        <ele>249.6</ele>
        <time>2016-01-03T11:58:19Z</time>
      </trkpt>
      <trkpt lat="49.11142" lon="7.26202">
        <ele>250.56</ele>
        <time>2016-01-03T11:58:27Z</time>
      </trkpt>
      <trkpt lat="49.11159" lon="7.26191">
        <ele>253.44</ele>
        <time>2016-01-03T11:58:47Z</time>
      </trkpt>
      <trkpt lat="49.11182" lon="7.26184">
        <ele>256.33</ele>
        <time>2016-01-03T11:59:07Z</time>
      </trkpt>
      <trkpt lat="49.11187" lon="7.26183">
        <ele>256.81</ele>
        <time>2016-01-03T11:59:12Z</time>
      </trkpt>
      <trkpt lat="49.11203" lon="7.26208">
        <ele>257.77</ele>
        <time>2016-01-03T11:59:32Z</time>
      </trkpt>
      <trkpt lat="49.11203" lon="7.26208">
        <ele>258.25</ele>
        <time>2016-01-03T11:59:33Z</time>
      </trkpt>
      <trkpt lat="49.11215" lon="7.26225">
        <ele>258.25</ele>
        <time>2016-01-03T11:59:48Z</time>
      </trkpt>
      <trkpt lat="49.1123" lon="7.26255">
        <ele>258.73</ele>
        <time>2016-01-03T12:00:08Z</time>
      </trkpt>
      <trkpt lat="49.11246" lon="7.26291">
        <ele>257.77</ele>
        <time>2016-01-03T12:00:31Z</time>
      </trkpt>
      <trkpt lat="49.11261" lon="7.26321">
        <ele>255.85</ele>
        <time>2016-01-03T12:00:50Z</time>
      </trkpt>
      <trkpt lat="49.11272" lon="7.26351">
        <ele>256.33</ele>
        <time>2016-01-03T12:01:09Z</time>
      </trkpt>
      <trkpt lat="49.11281" lon="7.26386">
        <ele>256.33</ele>
        <time>2016-01-03T12:01:29Z</time>
      </trkpt>
      <trkpt lat="49.11288" lon="7.26421">
        <ele>255.85</ele>
        <time>2016-01-03T12:01:48Z</time>
      </trkpt>
      <trkpt lat="49.11297" lon="7.26459">
        <ele>255.37</ele>
        <time>2016-01-03T12:02:09Z</time>
      </trkpt>
      <trkpt lat="49.1131" lon="7.26493">
        <ele>255.37</ele>
        <time>2016-01-03T12:02:32Z</time>
      </trkpt>
      <trkpt lat="49.11329" lon="7.26519">
        <ele>253.93</ele>
        <time>2016-01-03T12:02:53Z</time>
      </trkpt>
      <trkpt lat="49.1135" lon="7.26539">
        <ele>255.37</ele>
        <time>2016-01-03T12:03:14Z</time>
      </trkpt>
      <trkpt lat="49.11372" lon="7.26555">
        <ele>259.69</ele>
        <time>2016-01-03T12:03:36Z</time>
      </trkpt>
      <trkpt lat="49.11398" lon="7.26564">
        <ele>257.77</ele>
        <time>2016-01-03T12:03:57Z</time>
      </trkpt>
      <trkpt lat="49.11422" lon="7.26572">
        <ele>255.85</ele>
        <time>2016-01-03T12:04:17Z</time>
      </trkpt>
      <trkpt lat="49.11445" lon="7.26584">
        <ele>256.81</ele>
        <time>2016-01-03T12:04:39Z</time>
      </trkpt>
      <trkpt lat="49.11465" lon="7.26599">
        <ele>258.25</ele>
        <time>2016-01-03T12:04:59Z</time>
      </trkpt>
      <trkpt lat="49.11492" lon="7.26605">
        <ele>257.77</ele>
        <time>2016-01-03T12:05:19Z</time>
      </trkpt>
      <trkpt lat="49.11509" lon="7.26602">
        <ele>257.29</ele>
        <time>2016-01-03T12:05:32Z</time>
      </trkpt>
      <trkpt lat="49.11538" lon="7.26605">
        <ele>254.89</ele>
        <time>2016-01-03T12:05:56Z</time>
      </trkpt>
      <trkpt lat="49.11554" lon="7.26618">
        <ele>253.44</ele>
        <time>2016-01-03T12:06:14Z</time>
      </trkpt>
      <trkpt lat="49.11568" lon="7.26635">
        <ele>254.41</ele>
        <time>2016-01-03T12:06:32Z</time>
      </trkpt>
      <trkpt lat="49.11577" lon="7.2665">
        <ele>255.37</ele>
        <time>2016-01-03T12:06:43Z</time>
      </trkpt>
      <trkpt lat="49.11591" lon="7.2667">
        <ele>255.85</ele>
        <time>2016-01-03T12:06:58Z</time>
      </trkpt>
      <trkpt lat="49.1162" lon="7.26694">
        <ele>256.33</ele>
        <time>2016-01-03T12:07:23Z</time>
      </trkpt>
      <trkpt lat="49.1165" lon="7.26701">
        <ele>253.44</ele>
        <time>2016-01-03T12:07:46Z</time>
      </trkpt>
      <trkpt lat="49.1168" lon="7.26716">
        <ele>251.04</ele>
        <time>2016-01-03T12:08:10Z</time>
      </trkpt>
      <trkpt lat="49.11706" lon="7.26741">
        <ele>249.12</ele>
        <time>2016-01-03T12:08:33Z</time>
      </trkpt>
      <trkpt lat="49.11732" lon="7.26759">
        <ele>246.72</ele>
        <time>2016-01-03T12:08:57Z</time>
      </trkpt>
      <trkpt lat="49.11756" lon="7.26773">
        <ele>245.27</ele>
        <time>2016-01-03T12:09:18Z</time>
      </trkpt>
      <trkpt lat="49.11781" lon="7.26789">
        <ele>244.31</ele>
        <time>2016-01-03T12:09:40Z</time>
      </trkpt>
      <trkpt lat="49.11792" lon="7.26793">
        <ele>245.27</ele>
        <time>2016-01-03T12:09:51Z</time>
      </trkpt>
      <trkpt lat="49.11812" lon="7.26794">
        <ele>246.23</ele>
        <time>2016-01-03T12:10:09Z</time>
      </trkpt>
      <trkpt lat="49.11834" lon="7.26791">
        <ele>245.27</ele>
        <time>2016-01-03T12:10:27Z</time>
      </trkpt>
      <trkpt lat="49.11839" lon="7.2679">
        <ele>244.79</ele>
        <time>2016-01-03T12:10:32Z</time>
      </trkpt>
      <trkpt lat="49.11861" lon="7.26788">
        <ele>243.83</ele>
        <time>2016-01-03T12:10:52Z</time>
      </trkpt>
      <trkpt lat="49.1188" lon="7.26786">
        <ele>244.31</ele>
        <time>2016-01-03T12:11:09Z</time>
      </trkpt>
      <trkpt lat="49.11899" lon="7.26782">
        <ele>243.83</ele>
        <time>2016-01-03T12:11:27Z</time>
      </trkpt>
      <trkpt lat="49.1192" lon="7.2678">
        <ele>244.79</ele>
        <time>2016-01-03T12:11:47Z</time>
      </trkpt>
      <trkpt lat="49.11943" lon="7.26776">
        <ele>245.27</ele>
        <time>2016-01-03T12:12:10Z</time>
      </trkpt>
      <trkpt lat="49.11958" lon="7.26773">
        <ele>246.23</ele>
        <time>2016-01-03T12:12:26Z</time>
      </trkpt>
      <trkpt lat="49.11974" lon="7.26773">
        <ele>247.2</ele>
        <time>2016-01-03T12:12:42Z</time>
      </trkpt>
      <trkpt lat="49.11995" lon="7.26772">
        <ele>248.64</ele>
        <time>2016-01-03T12:13:03Z</time>
      </trkpt>
      <trkpt lat="49.12012" lon="7.26767">
        <ele>249.6</ele>
        <time>2016-01-03T12:13:20Z</time>
      </trkpt>
      <trkpt lat="49.12028" lon="7.26764">
        <ele>250.08</ele>
        <time>2016-01-03T12:13:36Z</time>
      </trkpt>
      <trkpt lat="49.12048" lon="7.26759">
        <ele>250.56</ele>
        <time>2016-01-03T12:13:55Z</time>
      </trkpt>
      <trkpt lat="49.12068" lon="7.26757">
        <ele>252.48</ele>
        <time>2016-01-03T12:14:15Z</time>
      </trkpt>
      <trkpt lat="49.12088" lon="7.26753">
        <ele>254.41</ele>
        <time>2016-01-03T12:14:34Z</time>
      </trkpt>
      <trkpt lat="49.12108" lon="7.26751">
        <ele>256.33</ele>
        <time>2016-01-03T12:14:54Z</time>
      </trkpt>
      <trkpt lat="49.12126" lon="7.26748">
        <ele>257.77</ele>
        <time>2016-01-03T12:15:13Z</time>
      </trkpt>
      <trkpt lat="49.12145" lon="7.26745">
        <ele>258.73</ele>
        <time>2016-01-03T12:15:32Z</time>
      </trkpt>
      <trkpt lat="49.12161" lon="7.26739">
        <ele>258.73</ele>
        <time>2016-01-03T12:15:50Z</time>
      </trkpt>
      <trkpt lat="49.12168" lon="7.26737">
        <ele>259.69</ele>
        <time>2016-01-03T12:16:08Z</time>
      </trkpt>
      <trkpt lat="49.12169" lon="7.26737">
        <ele>260.17</ele>
        <time>2016-01-03T12:16:40Z</time>
      </trkpt>
      <trkpt lat="49.12176" lon="7.26738">
        <ele>261.62</ele>
        <time>2016-01-03T12:16:50Z</time>
      </trkpt>
      <trkpt lat="49.12183" lon="7.26743">
        <ele>263.06</ele>
        <time>2016-01-03T12:16:57Z</time>
      </trkpt>
      <trkpt lat="49.12192" lon="7.26753">
        <ele>265.46</ele>
        <time>2016-01-03T12:17:10Z</time>
      </trkpt>
      <trkpt lat="49.12207" lon="7.26767">
        <ele>266.42</ele>
        <time>2016-01-03T12:17:29Z</time>
      </trkpt>
      <trkpt lat="49.12216" lon="7.26774">
        <ele>267.38</ele>
        <time>2016-01-03T12:17:39Z</time>
      </trkpt>
      <trkpt lat="49.12236" lon="7.26782">
        <ele>266.42</ele>
        <time>2016-01-03T12:17:57Z</time>
      </trkpt>
      <trkpt lat="49.12256" lon="7.26793">
        <ele>264.5</ele>
        <time>2016-01-03T12:18:17Z</time>
      </trkpt>
      <trkpt lat="49.12256" lon="7.26794">
        <ele>264.98</ele>
        <time>2016-01-03T12:18:35Z</time>
      </trkpt>
      <trkpt lat="49.12261" lon="7.26796">
        <ele>264.02</ele>
        <time>2016-01-03T12:18:46Z</time>
      </trkpt>
      <trkpt lat="49.12275" lon="7.26797">
        <ele>262.58</ele>
        <time>2016-01-03T12:18:58Z</time>
      </trkpt>
      <trkpt lat="49.12282" lon="7.26791">
        <ele>262.58</ele>
        <time>2016-01-03T12:19:08Z</time>
      </trkpt>
      <trkpt lat="49.12309" lon="7.2679">
        <ele>262.1</ele>
        <time>2016-01-03T12:19:30Z</time>
      </trkpt>
      <trkpt lat="49.12332" lon="7.26787">
        <ele>262.58</ele>
        <time>2016-01-03T12:19:49Z</time>
      </trkpt>
      <trkpt lat="49.12352" lon="7.26787">
        <ele>263.06</ele>
        <time>2016-01-03T12:20:07Z</time>
      </trkpt>
      <trkpt lat="49.12366" lon="7.26787">
        <ele>264.02</ele>
        <time>2016-01-03T12:20:22Z</time>
      </trkpt>
      <trkpt lat="49.1239" lon="7.26787">
        <ele>264.02</ele>
        <time>2016-01-03T12:20:42Z</time>
      </trkpt>
      <trkpt lat="49.12392" lon="7.26785">
        <ele>264.5</ele>
        <time>2016-01-03T12:20:47Z</time>
      </trkpt>
      <trkpt lat="49.12402" lon="7.26787">
        <ele>264.98</ele>
        <time>2016-01-03T12:21:03Z</time>
      </trkpt>
      <trkpt lat="49.12417" lon="7.26785">
        <ele>264.98</ele>
        <time>2016-01-03T12:21:17Z</time>
      </trkpt>
      <trkpt lat="49.1242" lon="7.26785">
        <ele>264.5</ele>
        <time>2016-01-03T12:21:19Z</time>
      </trkpt>
      <trkpt lat="49.12445" lon="7.26785">
        <ele>264.5</ele>
        <time>2016-01-03T12:21:41Z</time>
      </trkpt>
      <trkpt lat="49.1247" lon="7.26786">
        <ele>264.5</ele>
        <time>2016-01-03T12:22:02Z</time>
      </trkpt>
      <trkpt lat="49.12496" lon="7.26783">
        <ele>264.02</ele>
        <time>2016-01-03T12:22:24Z</time>
      </trkpt>
      <trkpt lat="49.12523" lon="7.26783">
        <ele>264.98</ele>
        <time>2016-01-03T12:22:46Z</time>
      </trkpt>
      <trkpt lat="49.12546" lon="7.26787">
        <ele>262.58</ele>
        <time>2016-01-03T12:23:06Z</time>
      </trkpt>
      <trkpt lat="49.1257" lon="7.26793">
        <ele>261.14</ele>
        <time>2016-01-03T12:23:26Z</time>
      </trkpt>
      <trkpt lat="49.12576" lon="7.26797">
        <ele>261.14</ele>
        <time>2016-01-03T12:23:38Z</time>
      </trkpt>
      <trkpt lat="49.12585" lon="7.26801">
        <ele>261.62</ele>
        <time>2016-01-03T12:23:50Z</time>
      </trkpt>
      <trkpt lat="49.12588" lon="7.26801">
        <ele>261.62</ele>
        <time>2016-01-03T12:23:52Z</time>
      </trkpt>
      <trkpt lat="49.12599" lon="7.26823">
        <ele>261.62</ele>
        <time>2016-01-03T12:24:11Z</time>
      </trkpt>
      <trkpt lat="49.12601" lon="7.26827">
        <ele>260.17</ele>
        <time>2016-01-03T12:24:29Z</time>
      </trkpt>
      <trkpt lat="49.12601" lon="7.26827">
        <ele>260.17</ele>
        <time>2016-01-03T12:24:30Z</time>
      </trkpt>
      <trkpt lat="49.12607" lon="7.26836">
        <ele>260.17</ele>
        <time>2016-01-03T12:24:37Z</time>
      </trkpt>
      <trkpt lat="49.12617" lon="7.26838">
        <ele>257.77</ele>
        <time>2016-01-03T12:24:55Z</time>
      </trkpt>
      <trkpt lat="49.12643" lon="7.26835">
        <ele>256.33</ele>
        <time>2016-01-03T12:25:16Z</time>
      </trkpt>
      <trkpt lat="49.12667" lon="7.26832">
        <ele>254.89</ele>
        <time>2016-01-03T12:25:37Z</time>
      </trkpt>
      <trkpt lat="49.12695" lon="7.26827">
        <ele>253.93</ele>
        <time>2016-01-03T12:26:01Z</time>
      </trkpt>
      <trkpt lat="49.12717" lon="7.26826">
        <ele>252.96</ele>
        <time>2016-01-03T12:26:20Z</time>
      </trkpt>
      <trkpt lat="49.12737" lon="7.26822">
        <ele>253.93</ele>
        <time>2016-01-03T12:26:39Z</time>
      </trkpt>
      <trkpt lat="49.12752" lon="7.26816">
        <ele>255.37</ele>
        <time>2016-01-03T12:26:56Z</time>
      </trkpt>
      <trkpt lat="49.12774" lon="7.26811">
        <ele>258.73</ele>
        <time>2016-01-03T12:27:14Z</time>
      </trkpt>
      <trkpt lat="49.12804" lon="7.26803">
        <ele>254.89</ele>
        <time>2016-01-03T12:27:35Z</time>
      </trkpt>
      <trkpt lat="49.12833" lon="7.26797">
        <ele>252.96</ele>
        <time>2016-01-03T12:27:57Z</time>
      </trkpt>
      <trkpt lat="49.12859" lon="7.2679">
        <ele>254.41</ele>
        <time>2016-01-03T12:28:18Z</time>
      </trkpt>
      <trkpt lat="49.12861" lon="7.26789">
        <ele>254.41</ele>
        <time>2016-01-03T12:28:20Z</time>
      </trkpt>
      <trkpt lat="49.12884" lon="7.26784">
        <ele>255.37</ele>
        <time>2016-01-03T12:28:40Z</time>
      </trkpt>
      <trkpt lat="49.12891" lon="7.26782">
        <ele>255.85</ele>
        <time>2016-01-03T12:28:46Z</time>
      </trkpt>
      <trkpt lat="49.12914" lon="7.26777">
        <ele>256.33</ele>
        <time>2016-01-03T12:29:07Z</time>
      </trkpt>
      <trkpt lat="49.12939" lon="7.26767">
        <ele>256.33</ele>
        <time>2016-01-03T12:29:29Z</time>
      </trkpt>
      <trkpt lat="49.12967" lon="7.26756">
        <ele>254.41</ele>
        <time>2016-01-03T12:29:52Z</time>
      </trkpt>
      <trkpt lat="49.12992" lon="7.26746">
        <ele>254.89</ele>
        <time>2016-01-03T12:30:14Z</time>
      </trkpt>
      <trkpt lat="49.13005" lon="7.26741">
        <ele>255.37</ele>
        <time>2016-01-03T12:30:28Z</time>
      </trkpt>
      <trkpt lat="49.13031" lon="7.26724">
        <ele>255.37</ele>
        <time>2016-01-03T12:30:52Z</time>
      </trkpt>
      <trkpt lat="49.13056" lon="7.26707">
        <ele>253.93</ele>
        <time>2016-01-03T12:31:15Z</time>
      </trkpt>
      <trkpt lat="49.13079" lon="7.26694">
        <ele>254.41</ele>
        <time>2016-01-03T12:31:37Z</time>
      </trkpt>
      <trkpt lat="49.13106" lon="7.26682">
        <ele>253.44</ele>
        <time>2016-01-03T12:32:01Z</time>
      </trkpt>
      <trkpt lat="49.13131" lon="7.26675">
        <ele>252.48</ele>
        <time>2016-01-03T12:32:22Z</time>
      </trkpt>
      <trkpt lat="49.13153" lon="7.26665">
        <ele>252</ele>
        <time>2016-01-03T12:32:44Z</time>
      </trkpt>
      <trkpt lat="49.13179" lon="7.26651">
        <ele>250.08</ele>
        <time>2016-01-03T12:33:06Z</time>
      </trkpt>
      <trkpt lat="49.13203" lon="7.26634">
        <ele>248.64</ele>
        <time>2016-01-03T12:33:30Z</time>
      </trkpt>
      <trkpt lat="49.13211" lon="7.26634">
        <ele>248.16</ele>
        <time>2016-01-03T12:33:47Z</time>
      </trkpt>
      <trkpt lat="49.1322" lon="7.26628">
        <ele>247.2</ele>
        <time>2016-01-03T12:33:59Z</time>
      </trkpt>
      <trkpt lat="49.13241" lon="7.26628">
        <ele>248.64</ele>
        <time>2016-01-03T12:34:16Z</time>
      </trkpt>
      <trkpt lat="49.1327" lon="7.26641">
        <ele>248.16</ele>
        <time>2016-01-03T12:34:42Z</time>
      </trkpt>
      <trkpt lat="49.13299" lon="7.26653">
        <ele>247.68</ele>
        <time>2016-01-03T12:35:06Z</time>
      </trkpt>
      <trkpt lat="49.13326" lon="7.26666">
        <ele>247.68</ele>
        <time>2016-01-03T12:35:29Z</time>
      </trkpt>
      <trkpt lat="49.13359" lon="7.2668">
        <ele>248.64</ele>
        <time>2016-01-03T12:35:57Z</time>
      </trkpt>
      <trkpt lat="49.13386" lon="7.26686">
        <ele>245.75</ele>
        <time>2016-01-03T12:36:21Z</time>
      </trkpt>
      <trkpt lat="49.13388" lon="7.26686">
        <ele>245.27</ele>
        <time>2016-01-03T12:36:26Z</time>
      </trkpt>
      <trkpt lat="49.13414" lon="7.26694">
        <ele>245.27</ele>
        <time>2016-01-03T12:36:48Z</time>
      </trkpt>
      <trkpt lat="49.13436" lon="7.26709">
        <ele>245.75</ele>
        <time>2016-01-03T12:37:09Z</time>
      </trkpt>
      <trkpt lat="49.13464" lon="7.26733">
        <ele>245.75</ele>
        <time>2016-01-03T12:37:33Z</time>
      </trkpt>
      <trkpt lat="49.13479" lon="7.26763">
        <ele>245.75</ele>
        <time>2016-01-03T12:37:54Z</time>
      </trkpt>
      <trkpt lat="49.13492" lon="7.26797">
        <ele>245.75</ele>
        <time>2016-01-03T12:38:13Z</time>
      </trkpt>
      <trkpt lat="49.13509" lon="7.26836">
        <ele>246.23</ele>
        <time>2016-01-03T12:38:38Z</time>
      </trkpt>
      <trkpt lat="49.13527" lon="7.26878">
        <ele>249.12</ele>
        <time>2016-01-03T12:39:04Z</time>
      </trkpt>
      <trkpt lat="49.13536" lon="7.26902">
        <ele>249.12</ele>
        <time>2016-01-03T12:39:20Z</time>
      </trkpt>
      <trkpt lat="49.13548" lon="7.26933">
        <ele>251.04</ele>
        <time>2016-01-03T12:39:40Z</time>
      </trkpt>
      <trkpt lat="49.13549" lon="7.26936">
        <ele>251.04</ele>
        <time>2016-01-03T12:39:42Z</time>
      </trkpt>
      <trkpt lat="49.13562" lon="7.26967">
        <ele>253.44</ele>
        <time>2016-01-03T12:40:02Z</time>
      </trkpt>
      <trkpt lat="49.13569" lon="7.27002">
        <ele>255.85</ele>
        <time>2016-01-03T12:40:23Z</time>
      </trkpt>
      <trkpt lat="49.1357" lon="7.27046">
        <ele>256.33</ele>
        <time>2016-01-03T12:40:46Z</time>
      </trkpt>
      <trkpt lat="49.13571" lon="7.2709">
        <ele>255.85</ele>
        <time>2016-01-03T12:41:09Z</time>
      </trkpt>
      <trkpt lat="49.13571" lon="7.27098">
        <ele>255.85</ele>
        <time>2016-01-03T12:41:13Z</time>
      </trkpt>
      <trkpt lat="49.13569" lon="7.27112">
        <ele>255.85</ele>
        <time>2016-01-03T12:41:26Z</time>
      </trkpt>
      <trkpt lat="49.13571" lon="7.27151">
        <ele>255.85</ele>
        <time>2016-01-03T12:41:47Z</time>
      </trkpt>
      <trkpt lat="49.13582" lon="7.27184">
        <ele>256.81</ele>
        <time>2016-01-03T12:42:07Z</time>
      </trkpt>
      <trkpt lat="49.13591" lon="7.27208">
        <ele>257.77</ele>
        <time>2016-01-03T12:42:23Z</time>
      </trkpt>
      <trkpt lat="49.13603" lon="7.27239">
        <ele>259.69</ele>
        <time>2016-01-03T12:42:42Z</time>
      </trkpt>
      <trkpt lat="49.13612" lon="7.27275">
        <ele>260.17</ele>
        <time>2016-01-03T12:43:02Z</time>
      </trkpt>
      <trkpt lat="49.13614" lon="7.27279">
        <ele>260.17</ele>
        <time>2016-01-03T12:43:05Z</time>
      </trkpt>
      <trkpt lat="49.13621" lon="7.27313">
        <ele>258.25</ele>
        <time>2016-01-03T12:43:23Z</time>
      </trkpt>
      <trkpt lat="49.13622" lon="7.27348">
        <ele>258.73</ele>
        <time>2016-01-03T12:43:43Z</time>
      </trkpt>
      <trkpt lat="49.13624" lon="7.27386">
        <ele>258.73</ele>
        <time>2016-01-03T12:44:03Z</time>
      </trkpt>
      <trkpt lat="49.13627" lon="7.27432">
        <ele>257.77</ele>
        <time>2016-01-03T12:44:26Z</time>
      </trkpt>
      <trkpt lat="49.13632" lon="7.27471">
        <ele>257.77</ele>
        <time>2016-01-03T12:44:48Z</time>
      </trkpt>
      <trkpt lat="49.13647" lon="7.27507">
        <ele>257.77</ele>
        <time>2016-01-03T12:45:11Z</time>
      </trkpt>
      <trkpt lat="49.1366" lon="7.27536">
        <ele>257.77</ele>
        <time>2016-01-03T12:45:30Z</time>
      </trkpt>
      <trkpt lat="49.13665" lon="7.27566">
        <ele>256.81</ele>
        <time>2016-01-03T12:45:47Z</time>
      </trkpt>
      <trkpt lat="49.13668" lon="7.27602">
        <ele>254.89</ele>
        <time>2016-01-03T12:46:06Z</time>
      </trkpt>
      <trkpt lat="49.13671" lon="7.27659">
        <ele>252.48</ele>
        <time>2016-01-03T12:46:34Z</time>
      </trkpt>
      <trkpt lat="49.13673" lon="7.27682">
        <ele>252</ele>
        <time>2016-01-03T12:46:46Z</time>
      </trkpt>
      <trkpt lat="49.13673" lon="7.2769">
        <ele>251.04</ele>
        <time>2016-01-03T12:47:01Z</time>
      </trkpt>
      <trkpt lat="49.13674" lon="7.27707">
        <ele>249.6</ele>
        <time>2016-01-03T12:47:15Z</time>
      </trkpt>
      <trkpt lat="49.13677" lon="7.27744">
        <ele>248.64</ele>
        <time>2016-01-03T12:47:35Z</time>
      </trkpt>
      <trkpt lat="49.13681" lon="7.27771">
        <ele>248.16</ele>
        <time>2016-01-03T12:47:52Z</time>
      </trkpt>
      <trkpt lat="49.13691" lon="7.27777">
        <ele>248.16</ele>
        <time>2016-01-03T12:48:09Z</time>
      </trkpt>
      <trkpt lat="49.13695" lon="7.27777">
        <ele>248.16</ele>
        <time>2016-01-03T12:48:23Z</time>
      </trkpt>
      <trkpt lat="49.13695" lon="7.27777">
        <ele>248.16</ele>
        <time>2016-01-03T12:48:39Z</time>
      </trkpt>
      <trkpt lat="49.13711" lon="7.27779">
        <ele>245.75</ele>
        <time>2016-01-03T12:48:54Z</time>
      </trkpt>
      <trkpt lat="49.13726" lon="7.27783">
        <ele>245.75</ele>
        <time>2016-01-03T12:49:09Z</time>
      </trkpt>
      <trkpt lat="49.13737" lon="7.27785">
        <ele>246.72</ele>
        <time>2016-01-03T12:49:23Z</time>
      </trkpt>
      <trkpt lat="49.13747" lon="7.27785">
        <ele>246.72</ele>
        <time>2016-01-03T12:49:39Z</time>
      </trkpt>
      <trkpt lat="49.13754" lon="7.27785">
        <ele>246.23</ele>
        <time>2016-01-03T12:49:47Z</time>
      </trkpt>
      <trkpt lat="49.13768" lon="7.27783">
        <ele>245.27</ele>
        <time>2016-01-03T12:50:04Z</time>
      </trkpt>
      <trkpt lat="49.13788" lon="7.27775">
        <ele>246.23</ele>
        <time>2016-01-03T12:50:23Z</time>
      </trkpt>
      <trkpt lat="49.13809" lon="7.27757">
        <ele>247.68</ele>
        <time>2016-01-03T12:50:44Z</time>
      </trkpt>
      <trkpt lat="49.13824" lon="7.27744">
        <ele>247.2</ele>
        <time>2016-01-03T12:50:59Z</time>
      </trkpt>
      <trkpt lat="49.13843" lon="7.27728">
        <ele>246.72</ele>
        <time>2016-01-03T12:51:18Z</time>
      </trkpt>
      <trkpt lat="49.13862" lon="7.27714">
        <ele>244.31</ele>
        <time>2016-01-03T12:51:37Z</time>
      </trkpt>
      <trkpt lat="49.13887" lon="7.27706">
        <ele>241.91</ele>
        <time>2016-01-03T12:51:59Z</time>
      </trkpt>
      <trkpt lat="49.13909" lon="7.27701">
        <ele>240.95</ele>
        <time>2016-01-03T12:52:18Z</time>
      </trkpt>
      <trkpt lat="49.13925" lon="7.27697">
        <ele>239.99</ele>
        <time>2016-01-03T12:52:32Z</time>
      </trkpt>
      <trkpt lat="49.13945" lon="7.27693">
        <ele>241.43</ele>
        <time>2016-01-03T12:52:51Z</time>
      </trkpt>
      <trkpt lat="49.13966" lon="7.27689">
        <ele>241.91</ele>
        <time>2016-01-03T12:53:09Z</time>
      </trkpt>
      <trkpt lat="49.13987" lon="7.27685">
        <ele>243.83</ele>
        <time>2016-01-03T12:53:27Z</time>
      </trkpt>
      <trkpt lat="49.14008" lon="7.2768">
        <ele>246.23</ele>
        <time>2016-01-03T12:53:45Z</time>
      </trkpt>
      <trkpt lat="49.14033" lon="7.27672">
        <ele>244.79</ele>
        <time>2016-01-03T12:54:07Z</time>
      </trkpt>
      <trkpt lat="49.1405" lon="7.27664">
        <ele>244.31</ele>
        <time>2016-01-03T12:54:23Z</time>
      </trkpt>
      <trkpt lat="49.1407" lon="7.27657">
        <ele>246.72</ele>
        <time>2016-01-03T12:54:41Z</time>
      </trkpt>
      <trkpt lat="49.14091" lon="7.27655">
        <ele>246.23</ele>
        <time>2016-01-03T12:54:59Z</time>
      </trkpt>
      <trkpt lat="49.14112" lon="7.27655">
        <ele>246.23</ele>
        <time>2016-01-03T12:55:17Z</time>
      </trkpt>
      <trkpt lat="49.14119" lon="7.27651">
        <ele>246.23</ele>
        <time>2016-01-03T12:55:24Z</time>
      </trkpt>
      <trkpt lat="49.14132" lon="7.27637">
        <ele>247.2</ele>
        <time>2016-01-03T12:55:41Z</time>
      </trkpt>
      <trkpt lat="49.14136" lon="7.27631">
        <ele>246.72</ele>
        <time>2016-01-03T12:55:53Z</time>
      </trkpt>
      <trkpt lat="49.14147" lon="7.27611">
        <ele>250.08</ele>
        <time>2016-01-03T12:56:08Z</time>
      </trkpt>
      <trkpt lat="49.14157" lon="7.27608">
        <ele>249.6</ele>
        <time>2016-01-03T12:56:18Z</time>
      </trkpt>
      <trkpt lat="49.14176" lon="7.27607">
        <ele>249.12</ele>
        <time>2016-01-03T12:56:34Z</time>
      </trkpt>
      <trkpt lat="49.14192" lon="7.27606">
        <ele>247.68</ele>
        <time>2016-01-03T12:56:49Z</time>
      </trkpt>
      <trkpt lat="49.142" lon="7.27605">
        <ele>247.2</ele>
        <time>2016-01-03T12:56:56Z</time>
      </trkpt>
      <trkpt lat="49.14209" lon="7.27604">
        <ele>247.68</ele>
        <time>2016-01-03T12:57:09Z</time>
      </trkpt>
      <trkpt lat="49.14209" lon="7.27604">
        <ele>247.68</ele>
        <time>2016-01-03T12:57:32Z</time>
      </trkpt>
      <trkpt lat="49.14209" lon="7.27604">
        <ele>247.68</ele>
        <time>2016-01-03T12:58:06Z</time>
      </trkpt>
      <trkpt lat="49.14221" lon="7.27607">
        <ele>246.72</ele>
        <time>2016-01-03T12:58:32Z</time>
      </trkpt>
      <trkpt lat="49.1423" lon="7.27614">
        <ele>244.79</ele>
        <time>2016-01-03T12:58:45Z</time>
      </trkpt>
      <trkpt lat="49.14235" lon="7.27585">
        <ele>243.35</ele>
        <time>2016-01-03T12:59:05Z</time>
      </trkpt>
      <trkpt lat="49.14244" lon="7.27575">
        <ele>242.87</ele>
        <time>2016-01-03T12:59:19Z</time>
      </trkpt>
      <trkpt lat="49.1427" lon="7.27569">
        <ele>242.87</ele>
        <time>2016-01-03T12:59:41Z</time>
      </trkpt>
      <trkpt lat="49.14291" lon="7.27572">
        <ele>242.87</ele>
        <time>2016-01-03T13:00:01Z</time>
      </trkpt>
      <trkpt lat="49.14308" lon="7.27557">
        <ele>244.31</ele>
        <time>2016-01-03T13:00:24Z</time>
      </trkpt>
      <trkpt lat="49.14308" lon="7.27551">
        <ele>244.79</ele>
        <time>2016-01-03T13:00:27Z</time>
      </trkpt>
      <trkpt lat="49.14307" lon="7.27541">
        <ele>245.75</ele>
        <time>2016-01-03T13:00:33Z</time>
      </trkpt>
      <trkpt lat="49.14309" lon="7.27519">
        <ele>250.08</ele>
        <time>2016-01-03T13:00:48Z</time>
      </trkpt>
      <trkpt lat="49.14311" lon="7.27514">
        <ele>250.08</ele>
        <time>2016-01-03T13:00:54Z</time>
      </trkpt>
      <trkpt lat="49.14312" lon="7.27511">
        <ele>250.56</ele>
        <time>2016-01-03T13:00:56Z</time>
      </trkpt>
      <trkpt lat="49.14313" lon="7.27502">
        <ele>252</ele>
        <time>2016-01-03T13:01:01Z</time>
      </trkpt>
      <trkpt lat="49.14313" lon="7.27494">
        <ele>252.48</ele>
        <time>2016-01-03T13:01:14Z</time>
      </trkpt>
      <trkpt lat="49.14313" lon="7.27486">
        <ele>252.48</ele>
        <time>2016-01-03T13:01:26Z</time>
      </trkpt>
      <trkpt lat="49.14313" lon="7.27481">
        <ele>252.96</ele>
        <time>2016-01-03T13:01:29Z</time>
      </trkpt>
      <trkpt lat="49.14313" lon="7.27473">
        <ele>253.93</ele>
        <time>2016-01-03T13:01:44Z</time>
      </trkpt>
      <trkpt lat="49.14315" lon="7.27464">
        <ele>252.48</ele>
        <time>2016-01-03T13:01:57Z</time>
      </trkpt>
      <trkpt lat="49.14314" lon="7.27441">
        <ele>251.04</ele>
        <time>2016-01-03T13:02:12Z</time>
      </trkpt>
      <trkpt lat="49.14312" lon="7.27439">
        <ele>251.04</ele>
        <time>2016-01-03T13:02:32Z</time>
      </trkpt>
      <trkpt lat="49.14302" lon="7.27431">
        <ele>253.93</ele>
        <time>2016-01-03T13:02:54Z</time>
      </trkpt>
      <trkpt lat="49.14301" lon="7.27419">
        <ele>253.93</ele>
        <time>2016-01-03T13:03:29Z</time>
      </trkpt>
    </trkseg>
  </trk>
</gpx>